SondeTracker

Meteorological Radiosondes Database

Operations

Sounding was ended - last measurement: 2022-12-06 13:51:49z

MAP
About Radiosonde

Number: S4950805

Launch Site: Santander (ES)

Type: RS41

AUX: NO

Frequency: 401.500 MHz

Max Speed: 83 km/h at 13703 m

Average Speed: 35.58 km/h

Max Altitude: 27735 m

Average Ascent Speed: 3.55 m/s

Average Descent Speed: 10.87 m/s

Status: FOUND

Status Changes
Launch Site Type AUX Frequency Status Finder Landing Point Description Changes made by
Santander (ES) RS41 NO 401.500 MHz FOUND GRUPO NORTE EA2 4.33195, -2.62059 Forest of Oma EA2 - 2022-12-06 23:54:21z
APRS Statistics

Received Frames: 543

First Frame [UTC]: 2022-12-06 11:19:54z

Last Frame [UTC]: 2022-12-06 13:51:49z

Receivers: EA1EF-14, EA1JAY-16, EA4EKH-11, F4JFI, F5LKO

Flight Time: 02:31:55 h

Distance From First Measurement: 82.18 km

Nearest City: Munguía (ES) [5.35 km]

Nearest Hunter: EA2 [15.20 km]

Ground Altitude: 280 m

Distance from QTH: 0.00 km

APRS Data
Receiver Number Date/Time [UTC] φ λ Course [°] Speed [km/h] Altitude [m] Description
EA1EF-14S49508052022-12-06 13:51:4943.3639-2.7823182508868Clb=-5.0m/s t=-45.1C 401.50MHz Type=RS41-SG meteocampoo.es - http://radiosondy.info
EA1EF-14S49508052022-12-06 13:51:3243.3639-2.7851887508948Clb=-4.3m/s t=-45.7C 401.50MHz Type=RS41-SG meteocampoo.es - http://radiosondy.info
EA1EF-14S49508052022-12-06 13:51:1643.3638-2.7878797549021Clb=-4.8m/s t=-46.4C 401.50MHz Type=RS41-SG meteocampoo.es - http://radiosondy.info
EA1EF-14S49508052022-12-06 13:51:0143.3638-2.7905496579092Clb=-4.8m/s t=-47.0C 401.50MHz Type=RS41-SG meteocampoo.es - http://radiosondy.info
EA1EF-14S49508052022-12-06 13:50:4543.3638-2.7936585569167Clb=-4.8m/s t=-47.7C 401.50MHz Type=RS41-SG meteocampoo.es - http://radiosondy.info
EA1EF-14S49508052022-12-06 13:49:3943.3644-2.80585100569467Clb=-3.9m/s 401.50MHz Type=RS41-SG meteocampoo.es - http://radiosondy.info
EA1EF-14S49508052022-12-06 13:49:2143.3649-2.80912101549548Clb=-4.5m/s t=-49.5C 401.50MHz Type=RS41-SG meteocampoo.es - http://radiosondy.info
EA1EF-14S49508052022-12-06 13:49:0543.3651-2.81199107599621Clb=-4.5m/s t=-50.0C 401.50MHz Type=RS41-SG meteocampoo.es - http://radiosondy.info
F4JFIS49508052022-12-06 13:49:0043.3652-2.8133485549651Clb=-4.5m/s t=-50.1C h=-1.0% p=-1.0hPa 401.500 MHz Type=RS41-SG Radiosonde auto_rx v1.5.8
F4JFIS49508052022-12-06 13:48:3043.3649-2.8222184449892Clb=-4.4m/s t=-51.5C h=-1.0% p=-1.0hPa 401.500 MHz Type=RS41-SG Radiosonde auto_rx v1.5.8
F4JFIS49508052022-12-06 13:48:0043.3648-2.823275489918Clb=-4.4m/s t=-51.5C h=-1.0% p=-1.0hPa 401.500 MHz Type=RS41-SG Radiosonde auto_rx v1.5.8
F4JFIS49508052022-12-06 13:47:3043.3638-2.82839735210052Clb=-4.6m/s t=-273.0C h=-1.0% p=-1.0hPa 401.500 MHz Type=RS41-SG Radiosonde auto_rx v1.5.8
F4JFIS49508052022-12-06 13:47:0043.3624-2.83422775610192Clb=-4.3m/s t=-273.0C h=-1.0% p=-1.0hPa 401.500 MHz Type=RS41 Radiosonde auto_rx v1.5.8
EA1EF-14S49508052022-12-06 13:43:3343.3575-2.87695876511229Clb=-5.6m/s t=-58.8C 401.50MHz Type=RS41-SG meteocampoo.es - http://radiosondy.info
EA1EF-14S49508052022-12-06 13:43:1443.3574-2.88125916311336Clb=-5.6m/s t=-59.2C 401.50MHz Type=RS41-SG meteocampoo.es - http://radiosondy.info
EA1EF-14S49508052022-12-06 13:42:5843.3575-2.88474936511425Clb=-5.5m/s t=-59.1C 401.50MHz Type=RS41-SG meteocampoo.es - http://radiosondy.info
EA1EF-14S49508052022-12-06 13:42:4243.3574-2.88821825711514Clb=-5.5m/s t=-59.6C 401.50MHz Type=RS41-SG meteocampoo.es - http://radiosondy.info
EA1EF-14S49508052022-12-06 13:42:2443.3575-2.891661035211615Clb=-5.4m/s t=-59.9C 401.50MHz Type=RS41-SG meteocampoo.es - http://radiosondy.info
EA1EF-14S49508052022-12-06 13:41:5943.3576-2.89633975411753Clb=-5.6m/s t=-60.1C 401.50MHz Type=RS41-SG meteocampoo.es - http://radiosondy.info
EA1EF-14S49508052022-12-06 13:41:3743.3574-2.90035755711876Clb=-5.5m/s t=-60.3C 401.50MHz Type=RS41-SG meteocampoo.es - http://radiosondy.info
EA1EF-14S49508052022-12-06 13:41:2143.3569-2.90342806111964Clb=-5.7m/s t=-59.3C 401.50MHz Type=RS41-SG meteocampoo.es - http://radiosondy.info
EA1EF-14S49508052022-12-06 13:41:0343.3563-2.90702906512065Clb=-5.7m/s t=-59.1C 401.50MHz Type=RS41-SG meteocampoo.es - http://radiosondy.info
EA1EF-14S49508052022-12-06 13:40:4743.3562-2.91054856112158Clb=-5.8m/s t=-58.5C 401.50MHz Type=RS41-SG meteocampoo.es - http://radiosondy.info
EA1EF-14S49508052022-12-06 13:40:3143.3563-2.91391966112253Clb=-5.9m/s t=-58.3C 401.50MHz Type=RS41-SG meteocampoo.es - http://radiosondy.info
EA4EKH-11S49508052022-12-06 13:40:2243.3564-2.9162906312319Clb=-6.0m/s t=-57.9C h=4.0% p=-1.0hPa 401.500 MHz Type=RS41-SG ser=S4950805 Radiosonde
EA1EF-14S49508052022-12-06 13:40:1943.3563-2.91718905912350Clb=-6.2m/s t=-58.1C 401.50MHz Type=RS41-SG meteocampoo.es - http://radiosondy.info
EA1EF-14S49508052022-12-06 13:39:5943.3563-2.9204846112448Clb=-6.0m/s t=-58.2C 401.50MHz Type=RS41-SG meteocampoo.es - http://radiosondy.info
EA4EKH-11S49508052022-12-06 13:39:5043.3563-2.92245856912510Clb=-6.3m/s t=-57.6C h=3.3% p=-1.0hPa 401.500 MHz Type=RS41-SG ser=S4950805 Radiosonde
EA1EF-14S49508052022-12-06 13:39:4343.3562-2.92365966112548Clb=-6.1m/s t=-57.6C 401.50MHz Type=RS41-SG meteocampoo.es - http://radiosondy.info
EA1EF-14S49508052022-12-06 13:39:2743.3563-2.92697906312648Clb=-6.4m/s t=-57.2C 401.50MHz Type=RS41-SG meteocampoo.es - http://radiosondy.info
EA4EKH-11S49508052022-12-06 13:39:1943.3563-2.92878956512705Clb=-6.3m/s t=-56.9C h=2.7% p=-1.0hPa 401.500 MHz Type=RS41-SG ser=S4950805 Radiosonde
EA1EF-14S49508052022-12-06 13:39:1143.3562-2.93033906912750Clb=-6.3m/s t=-56.9C 401.50MHz Type=RS41-SG meteocampoo.es - http://radiosondy.info
EA1EF-14S49508052022-12-06 13:38:5543.3561-2.93413837412850Clb=-6.7m/s t=-57.0C 401.50MHz Type=RS41-SG meteocampoo.es - http://radiosondy.info
EA4EKH-11S49508052022-12-06 13:38:4843.3559-2.93608827812903Clb=-6.6m/s t=-56.2C h=2.3% p=-1.0hPa 401.500 MHz Type=RS41-SG ser=S4950805 Radiosonde
EA1EF-14S49508052022-12-06 13:38:3943.3557-2.93803867612956Clb=-6.6m/s t=-56.4C 401.50MHz Type=RS41-SG meteocampoo.es - http://radiosondy.info
EA1EF-14S49508052022-12-06 13:38:2343.3553-2.94211867613063Clb=-6.7m/s t=-56.7C 401.50MHz Type=RS41-SG meteocampoo.es - http://radiosondy.info
EA4EKH-11S49508052022-12-06 13:38:1743.3551-2.94392847213109Clb=-6.7m/s t=-56.6C h=2.2% p=-1.0hPa 401.500 MHz Type=RS41-SG ser=S4950805 Radiosonde
EA1EF-14S49508052022-12-06 13:38:0743.3549-2.94619887013170Clb=-6.8m/s t=-56.5C 401.50MHz Type=RS41-SG meteocampoo.es - http://radiosondy.info
EA1EF-14S49508052022-12-06 13:37:5143.3547-2.95003887213277Clb=-6.8m/s t=-56.2C 401.50MHz Type=RS41-SG meteocampoo.es - http://radiosondy.info
EA4EKH-11S49508052022-12-06 13:37:4643.3545-2.95168826513325Clb=-6.7m/s t=-56.2C h=2.1% p=-1.0hPa 401.500 MHz Type=RS41-SG ser=S4950805 Radiosonde
EA1EF-14S49508052022-12-06 13:37:3543.3542-2.95383817413386Clb=-6.9m/s t=-56.6C 401.50MHz Type=RS41-SG meteocampoo.es - http://radiosondy.info
EA1EF-14S49508052022-12-06 13:37:1943.3536-2.95782747613492Clb=-6.8m/s t=-57.4C 401.50MHz Type=RS41-SG meteocampoo.es - http://radiosondy.info
EA4EKH-11S49508052022-12-06 13:37:1543.3534-2.95904817613526Clb=-6.8m/s t=-57.1C h=2.0% p=-1.0hPa 401.500 MHz Type=RS41-SG ser=S4950805 Radiosonde
EA1EF-14S49508052022-12-06 13:37:0343.3531-2.96191818013600Clb=-6.8m/s t=-57.6C 401.50MHz Type=RS41-SG meteocampoo.es - http://radiosondy.info
EA1EF-14S49508052022-12-06 13:36:4843.3528-2.96597878313703Clb=-6.8m/s t=-57.1C 401.50MHz Type=RS41-SG meteocampoo.es - http://radiosondy.info
EA4EKH-11S49508052022-12-06 13:36:4443.3526-2.96739857813737Clb=-7.0m/s t=-57.1C h=1.9% p=-1.0hPa 401.500 MHz Type=RS41-SG ser=S4950805 Radiosonde
EA1EF-14S49508052022-12-06 13:36:3343.3525-2.97022888113808Clb=-6.9m/s t=-57.7C 401.50MHz Type=RS41-SG meteocampoo.es - http://radiosondy.info
EA1EF-14S49508052022-12-06 13:36:1743.3523-2.97463817013919Clb=-7.4m/s t=-57.8C 401.50MHz Type=RS41-SG meteocampoo.es - http://radiosondy.info
EA4EKH-11S49508052022-12-06 13:36:1343.3523-2.97582977813953Clb=-6.9m/s t=-57.7C h=2.1% p=-1.0hPa 401.500 MHz Type=RS41-SG ser=S4950805 Radiosonde
EA1EF-14S49508052022-12-06 13:36:0143.3524-2.9785966114031Clb=-7.1m/s t=-57.9C 401.50MHz Type=RS41-SG meteocampoo.es - http://radiosondy.info
EA1EF-14S49508052022-12-06 13:35:4543.3524-2.98172965614144Clb=-7.1m/s t=-57.5C 401.50MHz Type=RS41-SG meteocampoo.es - http://radiosondy.info
EA4EKH-11S49508052022-12-06 13:35:4243.3525-2.98246976114172Clb=-7.2m/s t=-57.1C h=2.0% p=-1.0hPa 401.500 MHz Type=RS41-SG ser=S4950805 Radiosonde
EA1EF-14S49508052022-12-06 13:35:2943.3527-2.98474925214258Clb=-7.2m/s t=-57.8C 401.50MHz Type=RS41-SG meteocampoo.es - http://radiosondy.info
EA1EF-14S49508052022-12-06 13:35:1343.3531-2.987511104814373Clb=-7.4m/s t=-58.5C 401.50MHz Type=RS41-SG meteocampoo.es - http://radiosondy.info
EA4EKH-11S49508052022-12-06 13:35:1143.3532-2.988051035014394Clb=-7.4m/s t=-58.6C h=2.3% p=-1.0hPa 401.500 MHz Type=RS41-SG ser=S4950805 Radiosonde
EA1EF-14S49508052022-12-06 13:34:5743.3537-2.989951244614490Clb=-7.3m/s t=-59.2C 401.50MHz Type=RS41-SG meteocampoo.es - http://radiosondy.info
EA1EF-14S49508052022-12-06 13:34:4143.3546-2.992121314114608Clb=-7.6m/s t=-60.0C 401.50MHz Type=RS41-SG meteocampoo.es - http://radiosondy.info
EA4EKH-11S49508052022-12-06 13:34:3943.3548-2.992351284414623Clb=-7.7m/s t=-59.9C h=2.7% p=-1.0hPa 401.500 MHz Type=RS41-SG ser=S4950805 Radiosonde
EA1EF-14S49508052022-12-06 13:34:2543.3556-2.993921153914728Clb=-7.6m/s t=-60.4C 401.50MHz Type=RS41-SG meteocampoo.es - http://radiosondy.info
EA1EF-14S49508052022-12-06 13:34:0943.3561-2.99588953714850Clb=-7.5m/s t=-60.8C 401.50MHz Type=RS41-SG meteocampoo.es - http://radiosondy.info
EA4EKH-11S49508052022-12-06 13:34:0843.3561-2.99599973114858Clb=-7.5m/s t=-60.7C h=2.9% p=-1.0hPa 401.500 MHz Type=RS41-SG ser=S4950805 Radiosonde
EA1EF-14S49508052022-12-06 13:33:5343.3561-2.99793763514972Clb=-7.7m/s t=-61.3C 401.50MHz Type=RS41-SG meteocampoo.es - http://radiosondy.info
EA4EKH-11S49508052022-12-06 13:33:3743.3559-2.99984753915094Clb=-7.9m/s t=-62.1C h=3.1% p=-1.0hPa 401.500 MHz Type=RS41-SG ser=S4950805 Radiosonde
EA1EF-14S49508052022-12-06 13:33:2143.3555-3.00187964315217Clb=-7.8m/s t=-63.1C 401.50MHz Type=RS41-SG meteocampoo.es - http://radiosondy.info
EA4EKH-11S49508052022-12-06 13:33:0643.3553-3.00401975415332Clb=-7.8m/s t=-63.7C h=3.3% p=-1.0hPa 401.500 MHz Type=RS41-SG ser=S4950805 Radiosonde
EA1EF-14S49508052022-12-06 13:33:0543.3553-3.00419934815340Clb=-7.6m/s t=-63.9C 401.50MHz Type=RS41-SG meteocampoo.es - http://radiosondy.info
EA1EF-14S49508052022-12-06 13:32:4943.3555-3.00666964415460Clb=-7.0m/s t=-64.3C 401.50MHz Type=RS41-SG meteocampoo.es - http://radiosondy.info
EA4EKH-11S49508052022-12-06 13:32:3543.3561-3.00861963715567Clb=-7.6m/s t=-63.5C h=3.2% p=-1.0hPa 401.500 MHz Type=RS41-SG ser=S4950805 Radiosonde
EA1EF-14S49508052022-12-06 13:32:3343.3562-3.008831064315582Clb=-7.4m/s t=-63.6C 401.50MHz Type=RS41-SG meteocampoo.es - http://radiosondy.info
EA1EF-14S49508052022-12-06 13:32:1743.3566-3.0109873715706Clb=-6.8m/s t=-63.6C 401.50MHz Type=RS41-SG meteocampoo.es - http://radiosondy.info
EA4EKH-11S49508052022-12-06 13:32:0443.3566-3.01286902015814Clb=-7.9m/s t=-62.2C h=3.1% p=-1.0hPa 401.500 MHz Type=RS41-SG ser=S4950805 Radiosonde
EA1EF-14S49508052022-12-06 13:32:0143.3567-3.013021203515830Clb=-7.9m/s t=-62.5C 401.50MHz Type=RS41-SG meteocampoo.es - http://radiosondy.info
EA1EF-14S49508052022-12-06 13:31:4543.3568-3.014941104115956Clb=-8.0m/s t=-63.3C 401.50MHz Type=RS41-SG meteocampoo.es - http://radiosondy.info
EA4EKH-11S49508052022-12-06 13:31:3343.3566-3.01661024616058Clb=-8.1m/s t=-63.5C h=3.3% p=-1.0hPa 401.500 MHz Type=RS41-SG ser=S4950805 Radiosonde
EA1EF-14S49508052022-12-06 13:31:2943.3566-3.01718845416083Clb=-8.3m/s t=-63.6C 401.50MHz Type=RS41-SG meteocampoo.es - http://radiosondy.info
EA1EF-14S49508052022-12-06 13:31:1343.3562-3.02004766116213Clb=-7.7m/s t=-64.1C 401.50MHz Type=RS41-SG meteocampoo.es - http://radiosondy.info
EA4EKH-11S49508052022-12-06 13:31:0343.3561-3.02227937016309Clb=-7.9m/s t=-63.7C h=3.2% p=-1.0hPa 401.500 MHz Type=RS41-SG ser=S4950805 Radiosonde
EA1EF-14S49508052022-12-06 13:30:5743.356-3.02316714816342Clb=-8.1m/s t=-63.4C 401.50MHz Type=RS41-SG meteocampoo.es - http://radiosondy.info
EA1EF-14S49508052022-12-06 13:30:4243.3561-3.02556704116476Clb=-8.3m/s t=-63.0C 401.50MHz Type=RS41-SG meteocampoo.es - http://radiosondy.info
EA4EKH-11S49508052022-12-06 13:30:3143.3564-3.02693825416567Clb=-8.3m/s t=-62.6C h=2.7% p=-1.0hPa 401.500 MHz Type=RS41-SG ser=S4950805 Radiosonde
EA1EF-14S49508052022-12-06 13:30:2543.3562-3.02756683716609Clb=-8.5m/s t=-62.6C 401.50MHz Type=RS41-SG meteocampoo.es - http://radiosondy.info
EA1EF-14S49508052022-12-06 13:30:1243.356-3.02947984116743Clb=-8.5m/s t=-63.1C 401.50MHz Type=RS41-SG meteocampoo.es - http://radiosondy.info
EA4EKH-11S49508052022-12-06 13:30:0243.3558-3.03102612816826Clb=-8.4m/s t=-63.0C h=2.6% p=-1.0hPa 401.500 MHz Type=RS41-SG ser=S4950805 Radiosonde
EA1EF-14S49508052022-12-06 13:29:5343.3559-3.031651124416879Clb=-8.6m/s t=-62.9C 401.50MHz Type=RS41-SG meteocampoo.es - http://radiosondy.info
EA1EF-14S49508052022-12-06 13:29:3743.3563-3.033921144317016Clb=-8.2m/s t=-63.2C 401.50MHz Type=RS41-SG meteocampoo.es - http://radiosondy.info
EA4EKH-11S49508052022-12-06 13:29:2943.3564-3.03511402017093Clb=-8.7m/s t=-62.6C h=2.6% p=-1.0hPa 401.500 MHz Type=RS41-SG ser=S4950805 Radiosonde
EA1EF-14S49508052022-12-06 13:29:2143.3568-3.035951004317154Clb=-8.7m/s t=-63.1C 401.50MHz Type=RS41-SG meteocampoo.es - http://radiosondy.info
EA1EF-14S49508052022-12-06 13:29:0543.3572-3.03794894617295Clb=-8.6m/s t=-62.1C 401.50MHz Type=RS41-SG meteocampoo.es - http://radiosondy.info
EA4EKH-11S49508052022-12-06 13:28:5843.3572-3.038861303717364Clb=-8.6m/s t=-62.3C h=2.5% p=-1.0hPa 401.500 MHz Type=RS41-SG ser=S4950805 Radiosonde
EA1EF-14S49508052022-12-06 13:28:4943.3574-3.0403754617434Clb=-8.5m/s t=-62.6C 401.50MHz Type=RS41-SG meteocampoo.es - http://radiosondy.info
EA1EF-14S49508052022-12-06 13:28:3343.358-3.04247793917578Clb=-8.8m/s t=-61.8C 401.50MHz Type=RS41-SG meteocampoo.es - http://radiosondy.info
EA4EKH-11S49508052022-12-06 13:28:2743.3582-3.042921483917642Clb=-8.8m/s t=-61.1C h=2.3% p=-1.0hPa 401.500 MHz Type=RS41-SG ser=S4950805 Radiosonde
EA1EF-14S49508052022-12-06 13:28:1843.3585-3.04426673517724Clb=-9.2m/s t=-61.2C 401.50MHz Type=RS41-SG meteocampoo.es - http://radiosondy.info
EA1EF-14S49508052022-12-06 13:28:0243.3588-3.04579512817868Clb=-9.2m/s t=-61.2C 401.50MHz Type=RS41-SG meteocampoo.es - http://radiosondy.info
EA4EKH-11S49508052022-12-06 13:27:5643.359-3.045861613317923Clb=-9.0m/s t=-61.0C h=2.1% p=-1.0hPa 401.500 MHz Type=RS41-SG ser=S4950805 Radiosonde
EA1EF-14S49508052022-12-06 13:27:4543.3592-3.047433518014Clb=-9.2m/s t=-61.3C 401.50MHz Type=RS41-SG meteocampoo.es - http://radiosondy.info
EA1EF-14S49508052022-12-06 13:27:3043.3595-3.04853544118161Clb=-9.2m/s t=-61.8C 401.50MHz Type=RS41-SG meteocampoo.es - http://radiosondy.info
EA4EKH-11S49508052022-12-06 13:27:2443.3596-3.048731463118207Clb=-9.2m/s t=-61.7C h=2.2% p=-1.0hPa 401.500 MHz Type=RS41-SG ser=S4950805 Radiosonde
EA1EF-14S49508052022-12-06 13:27:1343.3598-3.05023633718308Clb=-9.2m/s t=-62.0C 401.50MHz Type=RS41-SG meteocampoo.es - http://radiosondy.info
EA1EF-14S49508052022-12-06 13:26:5743.36-3.051921063118460Clb=-9.6m/s t=-62.4C 401.50MHz Type=RS41-SG meteocampoo.es - http://radiosondy.info
EA4EKH-11S49508052022-12-06 13:26:5343.3602-3.052051483918498Clb=-9.6m/s t=-62.3C h=2.2% p=-1.0hPa 401.500 MHz Type=RS41-SG ser=S4950805 Radiosonde
EA1EF-14S49508052022-12-06 13:26:4243.3604-3.05322103118614Clb=-10.0m/s t=-62.7C 401.50MHz Type=RS41-SG meteocampoo.es - http://radiosondy.info
EA1EF-14S49508052022-12-06 13:26:2543.3609-3.054241982818770Clb=-10.1m/s t=-62.8C 401.50MHz Type=RS41-SG meteocampoo.es - http://radiosondy.info
EA4EKH-11S49508052022-12-06 13:26:2243.361-3.05431453318799Clb=-9.9m/s t=-62.7C h=2.3% p=-1.0hPa 401.500 MHz Type=RS41-SG ser=S4950805 Radiosonde
EA1EF-14S49508052022-12-06 13:26:1043.361-3.055311623518930Clb=-9.9m/s t=-61.7C 401.50MHz Type=RS41-SG meteocampoo.es - http://radiosondy.info
EA1EF-14S49508052022-12-06 13:25:5343.3613-3.056841674119091Clb=-10.4m/s t=-60.9C 401.50MHz Type=RS41-SG meteocampoo.es - http://radiosondy.info
EA4EKH-11S49508052022-12-06 13:25:5143.3615-3.056951494819112Clb=-9.9m/s t=-60.9C h=1.9% p=-1.0hPa 401.500 MHz Type=RS41-SG ser=S4950805 Radiosonde
EA1EF-14S49508052022-12-06 13:25:4043.3621-3.058441743719256Clb=-10.5m/s t=-61.3C 401.50MHz Type=RS41-SG meteocampoo.es - http://radiosondy.info
EA1EF-14S49508052022-12-06 13:25:2543.3628-3.059562202819423Clb=-10.3m/s t=-61.7C 401.50MHz Type=RS41-SG meteocampoo.es - http://radiosondy.info
EA4EKH-11S49508052022-12-06 13:25:2443.363-3.059471913719443Clb=-10.4m/s t=-61.7C h=1.9% p=-1.0hPa 401.500 MHz Type=RS41-SG ser=S4950805 Radiosonde
EA1EF-14S49508052022-12-06 13:25:0543.3633-3.059882391719584Clb=-9.5m/s t=-61.5C 401.50MHz Type=RS41-SG meteocampoo.es - http://radiosondy.info
EA4EKH-11S49508052022-12-06 13:24:5043.3636-3.06043963519757Clb=-10.4m/s t=-61.0C h=1.9% p=-1.0hPa 401.500 MHz Type=RS41-SG ser=S4950805 Radiosonde
EA1EF-14S49508052022-12-06 13:24:3543.3637-3.061051333319911Clb=-10.5m/s t=-61.0C 401.50MHz Type=RS41-SG meteocampoo.es - http://radiosondy.info
EA4EKH-11S49508052022-12-06 13:24:1843.3644-3.062061515620074Clb=-10.0m/s t=-60.6C h=1.7% p=-1.0hPa 401.500 MHz Type=RS41-SG ser=S4950805 Radiosonde
EA1EF-14S49508052022-12-06 13:24:1743.3644-3.062061523320074Clb=-9.9m/s t=-60.7C 401.50MHz Type=RS41-SG meteocampoo.es - http://radiosondy.info
EA1EF-14S49508052022-12-06 13:24:0343.3652-3.062741723020238Clb=-9.7m/s t=-61.2C 401.50MHz Type=RS41-SG meteocampoo.es - http://radiosondy.info
EA4EKH-11S49508052022-12-06 13:23:4743.3661-3.062922302820390Clb=-9.8m/s t=-61.6C h=1.7% p=-1.0hPa 401.500 MHz Type=RS41-SG ser=S4950805 Radiosonde
EA1EF-14S49508052022-12-06 13:23:4643.3662-3.062832443720400Clb=-10.0m/s t=-61.8C 401.50MHz Type=RS41-SG meteocampoo.es - http://radiosondy.info
EA4EKH-11S49508052022-12-06 13:22:5343.4085-3.155091145727735Clb=4.3m/s t=-58.6C h=1.2% p=-1.0hPa 401.500 MHz Type=RS41-SG ser=S4950805 Radiosonde
EA4EKH-11S49508052022-12-06 13:22:1143.4104-3.159191155027580Clb=4.7m/s t=-59.2C h=1.3% p=-1.0hPa 401.500 MHz Type=RS41-SG ser=S4950805 Radiosonde
EA4EKH-11S49508052022-12-06 13:21:3443.4124-3.162561513927427Clb=4.6m/s t=-59.0C h=1.3% p=-1.0hPa 401.500 MHz Type=RS41-SG ser=S4950805 Radiosonde
EA4EKH-11S49508052022-12-06 13:20:5543.4144-3.165821333727271Clb=4.5m/s t=-58.9C h=1.3% p=-1.0hPa 401.500 MHz Type=RS41-SG ser=S4950805 Radiosonde
EA4EKH-11S49508052022-12-06 13:20:1443.4165-3.168841344827119Clb=5.2m/s t=-59.5C h=1.3% p=-1.0hPa 401.500 MHz Type=RS41-SG ser=S4950805 Radiosonde
EA1EF-14S49508052022-12-06 13:19:4143.4182-3.170941374427022Clb=5.1m/s t=-60.0C 401.50MHz Type=RS41-SG meteocampoo.es - http://radiosondy.info
EA4EKH-11S49508052022-12-06 13:19:2643.419-3.1721453726977Clb=4.1m/s t=-59.9C h=1.4% p=-1.0hPa 401.500 MHz Type=RS41-SG ser=S4950805 Radiosonde
EA1EF-14S49508052022-12-06 13:18:5243.4207-3.174311254126868Clb=4.1m/s t=-61.1C 401.50MHz Type=RS41-SG meteocampoo.es - http://radiosondy.info
EA4EKH-11S49508052022-12-06 13:18:4543.4211-3.175071303326840Clb=5.0m/s t=-61.0C h=1.5% p=-1.0hPa 401.500 MHz Type=RS41-SG ser=S4950805 Radiosonde
EA1EF-14S49508052022-12-06 13:18:3543.4216-3.17611263326798Clb=4.4m/s t=-61.7C 401.50MHz Type=RS41-SG meteocampoo.es - http://radiosondy.info
EA1EF-14S49508052022-12-06 13:18:1443.4223-3.177271312426732Clb=3.8m/s t=-61.4C 401.50MHz Type=RS41-SG meteocampoo.es - http://radiosondy.info
F5LKOS49508052022-12-06 13:18:1143.4224-3.177451302026719Clb=3.5m/s t=-61.4C h=1.5% p=-1.0hPa 401.501 MHz Type=RS41-SG ser=S4950805 Radiosonde
EA4EKH-11S49508052022-12-06 13:18:0743.4225-3.177571192226711Clb=5.0m/s t=-61.5C h=1.5% p=-1.0hPa 401.500 MHz Type=RS41-SG ser=S4950805 Radiosonde
F5LKOS49508052022-12-06 13:17:2643.4237-3.179711222826590Clb=3.9m/s t=-61.6C h=1.4% p=-1.0hPa 401.501 MHz Type=RS41-SG ser=S4950805 Radiosonde
EA4EKH-11S49508052022-12-06 13:17:2143.4238-3.179991103326577Clb=4.1m/s t=-61.6C h=1.4% p=-1.0hPa 401.500 MHz Type=RS41-SG ser=S4950805 Radiosonde
EA1EF-14S49508052022-12-06 13:16:5243.4247-3.181631553126494Clb=5.2m/s t=-61.7C 401.50MHz Type=RS41-SG meteocampoo.es - http://radiosondy.info
F5LKOS49508052022-12-06 13:16:4343.4252-3.182161232826459Clb=4.8m/s t=-61.3C h=1.5% p=-1.0hPa 401.501 MHz Type=RS41-SG ser=S4950805 Radiosonde
EA4EKH-11S49508052022-12-06 13:16:3943.4253-3.182431323326446Clb=4.0m/s t=-61.2C h=1.4% p=-1.0hPa 401.500 MHz Type=RS41-SG ser=S4950805 Radiosonde
EA1EF-14S49508052022-12-06 13:16:3243.4256-3.182881353526419Clb=4.6m/s t=-61.3C 401.50MHz Type=RS41-SG meteocampoo.es - http://radiosondy.info
F5LKOS49508052022-12-06 13:16:0543.4268-3.184871343526321Clb=5.1m/s t=-61.4C h=1.5% p=-1.0hPa 401.501 MHz Type=RS41-SG ser=S4950805 Radiosonde
EA4EKH-11S49508052022-12-06 13:16:0143.427-3.185161334326308Clb=4.0m/s t=-61.3C h=1.5% p=-1.0hPa 401.500 MHz Type=RS41-SG ser=S4950805 Radiosonde
F5LKOS49508052022-12-06 13:15:2243.4284-3.188141223926172Clb=4.6m/s t=-61.8C h=1.5% p=-1.0hPa 401.501 MHz Type=RS41-SG ser=S4950805 Radiosonde
EA4EKH-11S49508052022-12-06 13:15:1743.4285-3.188531064126157Clb=4.6m/s t=-61.6C h=1.4% p=-1.0hPa 401.500 MHz Type=RS41-SG ser=S4950805 Radiosonde
F5LKOS49508052022-12-06 13:14:4043.4295-3.191481123926017Clb=4.5m/s t=-62.8C h=1.5% p=-1.0hPa 401.501 MHz Type=RS41-SG ser=S4950805 Radiosonde
EA1EF-14S49508052022-12-06 13:14:3643.4295-3.19183963326001Clb=4.5m/s t=-63.1C 401.50MHz Type=RS41-SG meteocampoo.es - http://radiosondy.info
EA4EKH-11S49508052022-12-06 13:14:3543.4295-3.19183953126001Clb=4.6m/s t=-62.9C h=1.6% p=-1.0hPa 401.500 MHz Type=RS41-SG ser=S4950805 Radiosonde
EA1EF-14S49508052022-12-06 13:14:1143.4299-3.19405863325898Clb=5.8m/s t=-62.6C 401.50MHz Type=RS41-SG meteocampoo.es - http://radiosondy.info
F5LKOS49508052022-12-06 13:14:0043.4301-3.194911262825855Clb=5.3m/s t=-62.0C h=1.6% p=-1.0hPa 401.501 MHz Type=RS41-SG ser=S4950805 Radiosonde
EA4EKH-11S49508052022-12-06 13:13:5643.4302-3.19526913325835Clb=5.2m/s t=-61.9C h=1.5% p=-1.0hPa 401.500 MHz Type=RS41-SG ser=S4950805 Radiosonde
EA1EF-14S49508052022-12-06 13:13:5043.4302-3.19563793325819Clb=5.6m/s t=-62.1C 401.50MHz Type=RS41-SG meteocampoo.es - http://radiosondy.info
F5LKOS49508052022-12-06 13:13:1543.4308-3.197731292225698Clb=4.7m/s t=-61.4C h=1.5% p=-1.0hPa 401.501 MHz Type=RS41-SG ser=S4950805 Radiosonde
EA4EKH-11S49508052022-12-06 13:13:1043.4308-3.19803882425677Clb=5.1m/s t=-61.5C h=1.5% p=-1.0hPa 401.500 MHz Type=RS41-SG ser=S4950805 Radiosonde
EA1EF-14S49508052022-12-06 13:13:0043.4309-3.198451272625653Clb=5.8m/s t=-61.8C 401.50MHz Type=RS41-SG meteocampoo.es - http://radiosondy.info
EA1EF-14S49508052022-12-06 13:12:3843.4315-3.199421402225573Clb=4.8m/s t=-61.6C 401.50MHz Type=RS41-SG meteocampoo.es - http://radiosondy.info
F5LKOS49508052022-12-06 13:12:2943.432-3.19981381525525Clb=5.4m/s t=-61.4C h=1.5% p=-1.0hPa 401.501 MHz Type=RS41-SG ser=S4950805 Radiosonde
EA4EKH-11S49508052022-12-06 13:12:2643.432-3.19981381525525Clb=5.4m/s t=-61.4C h=1.5% p=-1.0hPa 401.500 MHz Type=RS41-SG ser=S4950805 Radiosonde
EA1EF-14S49508052022-12-06 13:12:1543.4323-3.200051471725497Clb=4.4m/s t=-61.5C 401.50MHz Type=RS41-SG meteocampoo.es - http://radiosondy.info
F5LKOS49508052022-12-06 13:12:0143.4332-3.200291871925398Clb=5.2m/s t=-61.3C h=1.4% p=-1.0hPa 401.501 MHz Type=RS41-SG ser=S4950805 Radiosonde
EA1EF-14S49508052022-12-06 13:12:0043.4336-3.200331921725354Clb=3.9m/s t=-61.3C 401.50MHz Type=RS41-SG meteocampoo.es - http://radiosondy.info
EA1EF-14S49508052022-12-06 13:11:5543.4342-3.20029176725277Clb=3.4m/s t=-61.8C 401.50MHz Type=RS41-SG meteocampoo.es - http://radiosondy.info
EA4EKH-11S49508052022-12-06 13:11:5443.4344-3.2002203625249Clb=4.3m/s t=-61.5C h=1.6% p=-1.0hPa 401.500 MHz Type=RS41-SG ser=S4950805 Radiosonde
EA1EF-14S49508052022-12-06 13:11:5243.4346-3.20019158925212Clb=4.0m/s t=-61.5C 401.50MHz Type=RS41-SG meteocampoo.es - http://radiosondy.info
EA1EF-14S49508052022-12-06 13:11:4843.4348-3.20043781325150Clb=3.3m/s t=-61.0C 401.50MHz Type=RS41-SG meteocampoo.es - http://radiosondy.info
EA4EKH-11S49508052022-12-06 13:11:4743.435-3.20056184925121Clb=3.0m/s t=-60.9C h=1.5% p=-1.0hPa 401.500 MHz Type=RS41-SG ser=S4950805 Radiosonde
EA1EF-14S49508052022-12-06 13:11:4543.4349-3.20086611525088Clb=3.4m/s t=-61.2C 401.50MHz Type=RS41-SG meteocampoo.es - http://radiosondy.info
F5LKOS49508052022-12-06 13:11:3943.4348-3.20172871525008Clb=5.1m/s t=-61.0C h=1.5% p=-1.0hPa 401.501 MHz Type=RS41-SG ser=S4950805 Radiosonde
EA1EF-14S49508052022-12-06 13:11:3843.4346-3.20247991324931Clb=4.9m/s t=-61.4C 401.50MHz Type=RS41-SG meteocampoo.es - http://radiosondy.info
EA4EKH-11S49508052022-12-06 13:11:3743.4343-3.20312601924859Clb=4.1m/s t=-61.1C h=1.6% p=-1.0hPa 401.500 MHz Type=RS41-SG ser=S4950805 Radiosonde
EA1EF-14S49508052022-12-06 13:11:3443.4337-3.20399541524761Clb=3.8m/s t=-60.8C 401.50MHz Type=RS41-SG meteocampoo.es - http://radiosondy.info
F5LKOS49508052022-12-06 13:11:3143.4336-3.2040866424733Clb=5.0m/s t=-60.7C h=1.5% p=-1.0hPa 401.501 MHz Type=RS41-SG ser=S4950805 Radiosonde
EA4EKH-11S49508052022-12-06 13:11:2943.4336-3.20419801324719Clb=5.2m/s t=-60.5C h=1.4% p=-1.0hPa 401.500 MHz Type=RS41-SG ser=S4950805 Radiosonde
EA1EF-14S49508052022-12-06 13:11:2543.4336-3.2046861324687Clb=5.3m/s t=-60.6C 401.50MHz Type=RS41-SG meteocampoo.es - http://radiosondy.info
EA1EF-14S49508052022-12-06 13:11:1143.4336-3.205291611324613Clb=3.9m/s t=-61.1C 401.50MHz Type=RS41-SG meteocampoo.es - http://radiosondy.info
F5LKOS49508052022-12-06 13:11:0543.4337-3.205391021124591Clb=4.2m/s t=-61.0C h=1.5% p=-1.0hPa 401.501 MHz Type=RS41-SG ser=S4950805 Radiosonde
EA4EKH-11S49508052022-12-06 13:10:5943.4337-3.205511011324576Clb=4.2m/s t=-61.0C h=1.5% p=-1.0hPa 401.500 MHz Type=RS41-SG ser=S4950805 Radiosonde
EA1EF-14S49508052022-12-06 13:10:4843.4337-3.20594621124538Clb=4.7m/s t=-61.1C 401.50MHz Type=RS41-SG meteocampoo.es - http://radiosondy.info
EA1EF-14S49508052022-12-06 13:10:2343.4335-3.2064740924459Clb=5.1m/s t=-61.4C 401.50MHz Type=RS41-SG meteocampoo.es - http://radiosondy.info
F5LKOS49508052022-12-06 13:10:1843.4334-3.2065543424439Clb=5.2m/s t=-61.6C h=1.5% p=-1.0hPa 401.501 MHz Type=RS41-SG ser=S4950805 Radiosonde
EA4EKH-11S49508052022-12-06 13:10:1243.4334-3.20659421124424Clb=5.3m/s t=-61.7C h=1.5% p=-1.0hPa 401.500 MHz Type=RS41-SG ser=S4950805 Radiosonde
EA1EF-14S49508052022-12-06 13:09:5543.4331-3.206698624381Clb=4.3m/s t=-61.7C 401.50MHz Type=RS41-SG meteocampoo.es - http://radiosondy.info
EA1EF-14S49508052022-12-06 13:09:2843.4329-3.20666309624301Clb=5.7m/s t=-61.0C 401.50MHz Type=RS41-SG meteocampoo.es - http://radiosondy.info
F5LKOS49508052022-12-06 13:09:2143.4329-3.2066264224286Clb=5.1m/s t=-61.0C h=1.5% p=-1.0hPa 401.501 MHz Type=RS41-SG ser=S4950805 Radiosonde
EA4EKH-11S49508052022-12-06 13:09:1743.4329-3.2066479624272Clb=4.0m/s t=-60.8C h=1.5% p=-1.0hPa 401.500 MHz Type=RS41-SG ser=S4950805 Radiosonde
EA1EF-14S49508052022-12-06 13:09:0043.4329-3.20651238724221Clb=4.5m/s t=-60.5C 401.50MHz Type=RS41-SG meteocampoo.es - http://radiosondy.info
EA1EF-14S49508052022-12-06 13:08:3343.4329-3.206281641124141Clb=5.9m/s t=-60.0C 401.50MHz Type=RS41-SG meteocampoo.es - http://radiosondy.info
F5LKOS49508052022-12-06 13:08:3043.4329-3.2063142624131Clb=4.3m/s t=-59.8C h=1.3% p=-1.0hPa 401.501 MHz Type=RS41-SG ser=S4950805 Radiosonde
EA4EKH-11S49508052022-12-06 13:08:2443.433-3.206282391124116Clb=4.5m/s t=-59.9C h=1.4% p=-1.0hPa 401.500 MHz Type=RS41-SG ser=S4950805 Radiosonde
EA1EF-14S49508052022-12-06 13:08:0343.4332-3.205931581524062Clb=4.1m/s t=-60.4C 401.50MHz Type=RS41-SG meteocampoo.es - http://radiosondy.info
EA1EF-14S49508052022-12-06 13:07:3143.4336-3.205411882423981Clb=4.4m/s t=-60.4C 401.50MHz Type=RS41-SG meteocampoo.es - http://radiosondy.info
F5LKOS49508052022-12-06 13:07:2943.4337-3.20541951123976Clb=5.1m/s t=-273.0C h=-1.0% p=-1.0hPa 401.501 MHz Type=RS41-SG ser=S4950805 Radiosonde
EA4EKH-11S49508052022-12-06 13:07:2343.434-3.205161983023935Clb=5.5m/s t=-60.2C h=1.4% p=-1.0hPa 401.500 MHz Type=RS41-SG ser=S4950805 Radiosonde
EA1EF-14S49508052022-12-06 13:07:0243.4345-3.205081923123900Clb=4.6m/s t=-60.2C 401.50MHz Type=RS41-SG meteocampoo.es - http://radiosondy.info
F5LKOS49508052022-12-06 13:06:3843.4358-3.205021823323818Clb=4.1m/s t=-273.0C h=-1.0% p=-1.0hPa 401.501 MHz Type=RS41 ser=S4950805 Radiosonde
EA4EKH-11S49508052022-12-06 13:06:3443.436-3.205031703323808Clb=5.2m/s t=-59.9C h=1.4% p=-1.0hPa 401.500 MHz Type=RS41-SG ser=S4950805 Radiosonde
EA1EF-14S49508052022-12-06 13:06:1543.4372-3.205321643923746Clb=5.5m/s t=-60.2C 401.50MHz Type=RS41-SG meteocampoo.es - http://radiosondy.info
EA1EF-14S49508052022-12-06 13:05:5243.4386-3.205861563323673Clb=4.5m/s t=-60.0C 401.50MHz Type=RS41-SG meteocampoo.es - http://radiosondy.info
EA4EKH-11S49508052022-12-06 13:05:4843.439-3.206051593323645Clb=4.2m/s t=-60.3C h=1.4% p=-1.0hPa 401.500 MHz Type=RS41-SG ser=S4950805 Radiosonde
EA1EF-14S49508052022-12-06 13:05:2043.4402-3.206631552623576Clb=5.2m/s t=-60.8C 401.50MHz Type=RS41-SG meteocampoo.es - http://radiosondy.info
EA4EKH-11S49508052022-12-06 13:04:5943.4409-3.207181511523517Clb=5.1m/s t=-61.1C h=1.6% p=-1.0hPa 401.500 MHz Type=RS41-SG ser=S4950805 Radiosonde
EA1EF-14S49508052022-12-06 13:04:5543.4411-3.207271472223504Clb=4.8m/s t=-61.4C 401.50MHz Type=RS41-SG meteocampoo.es - http://radiosondy.info
EA1EF-14S49508052022-12-06 13:04:2843.4419-3.207731492623436Clb=3.7m/s t=-61.7C 401.50MHz Type=RS41-SG meteocampoo.es - http://radiosondy.info
EA4EKH-11S49508052022-12-06 13:04:0743.4427-3.207961592223378Clb=4.2m/s t=-61.6C h=1.6% p=-1.0hPa 401.500 MHz Type=RS41-SG ser=S4950805 Radiosonde
EA1EF-14S49508052022-12-06 13:03:5943.4428-3.208031722023365Clb=4.9m/s t=-62.1C 401.50MHz Type=RS41-SG meteocampoo.es - http://radiosondy.info
EA1EF-14S49508052022-12-06 13:03:2843.4437-3.208221732823293Clb=5.0m/s t=-62.0C 401.50MHz Type=RS41-SG meteocampoo.es - http://radiosondy.info
EA4EKH-11S49508052022-12-06 13:03:1343.4445-3.208271822623241Clb=3.7m/s t=-61.4C h=1.5% p=-1.0hPa 401.500 MHz Type=RS41-SG ser=S4950805 Radiosonde
EA1EF-14S49508052022-12-06 13:03:0743.4448-3.208271813323222Clb=4.8m/s t=-61.4C 401.50MHz Type=RS41-SG meteocampoo.es - http://radiosondy.info
EA1EF-14S49508052022-12-06 13:02:4343.4461-3.208331893923152Clb=5.0m/s t=-61.8C 401.50MHz Type=RS41-SG meteocampoo.es - http://radiosondy.info
EA4EKH-11S49508052022-12-06 13:02:2943.4472-3.208481664323103Clb=4.0m/s t=-61.9C h=1.7% p=-1.0hPa 401.500 MHz Type=RS41-SG ser=S4950805 Radiosonde
EA1EF-14S49508052022-12-06 13:02:1943.4476-3.20861753723081Clb=4.4m/s t=-62.2C 401.50MHz Type=RS41-SG meteocampoo.es - http://radiosondy.info
EA1EF-14S49508052022-12-06 13:01:5243.4491-3.209031673323009Clb=4.4m/s t=-61.4C 401.50MHz Type=RS41-SG meteocampoo.es - http://radiosondy.info
EA4EKH-11S49508052022-12-06 13:01:4143.4498-3.209211832622966Clb=5.0m/s t=-61.3C h=1.5% p=-1.0hPa 401.500 MHz Type=RS41-SG ser=S4950805 Radiosonde
EA1EF-14S49508052022-12-06 13:01:3243.4504-3.209221673722933Clb=4.4m/s t=-61.4C 401.50MHz Type=RS41-SG meteocampoo.es - http://radiosondy.info
EA1EF-14S49508052022-12-06 13:01:0143.4517-3.209051873322862Clb=4.2m/s t=-61.4C 401.50MHz Type=RS41-SG meteocampoo.es - http://radiosondy.info
EA4EKH-11S49508052022-12-06 13:00:4443.4525-3.208951953122816Clb=4.0m/s t=-61.3C h=1.6% p=-1.0hPa 401.500 MHz Type=RS41-SG ser=S4950805 Radiosonde
EA1EF-14S49508052022-12-06 13:00:3343.453-3.208721982822787Clb=3.6m/s t=-61.2C 401.50MHz Type=RS41-SG meteocampoo.es - http://radiosondy.info
EA1EF-14S49508052022-12-06 12:59:5743.4541-3.208621902822708Clb=4.4m/s t=-60.6C 401.50MHz Type=RS41-SG meteocampoo.es - http://radiosondy.info
EA4EKH-11S49508052022-12-06 12:59:4243.4547-3.208621863322663Clb=4.0m/s t=-60.1C h=1.5% p=-1.0hPa 401.500 MHz Type=RS41-SG ser=S4950805 Radiosonde
EA1EF-14S49508052022-12-06 12:59:2743.4552-3.208561833322629Clb=4.3m/s t=-60.3C 401.50MHz Type=RS41-SG meteocampoo.es - http://radiosondy.info
EA1EF-14S49508052022-12-06 12:58:5143.4565-3.208661673122548Clb=4.6m/s t=-60.4C 401.50MHz Type=RS41-SG meteocampoo.es - http://radiosondy.info
EA4EKH-11S49508052022-12-06 12:58:3743.4572-3.208831742822510Clb=5.1m/s t=-60.0C h=1.5% p=-1.0hPa 401.500 MHz Type=RS41-SG ser=S4950805 Radiosonde
EA1EF-14S49508052022-12-06 12:58:2043.4578-3.208921673122469Clb=4.8m/s t=-60.1C 401.50MHz Type=RS41-SG meteocampoo.es - http://radiosondy.info
EA1EF-14S49508052022-12-06 12:57:4343.459-3.209211753022392Clb=4.8m/s t=-60.9C 401.50MHz Type=RS41-SG meteocampoo.es - http://radiosondy.info
EA4EKH-11S49508052022-12-06 12:57:3143.4596-3.209371612422359Clb=3.7m/s t=-61.0C h=1.6% p=-1.0hPa 401.500 MHz Type=RS41-SG ser=S4950805 Radiosonde
EA1EF-14S49508052022-12-06 12:57:1343.4602-3.209471722822319Clb=5.2m/s t=-61.8C 401.50MHz Type=RS41-SG meteocampoo.es - http://radiosondy.info
EA1EF-14S49508052022-12-06 12:56:4543.4611-3.210211562622245Clb=4.5m/s t=-62.2C 401.50MHz Type=RS41-SG meteocampoo.es - http://radiosondy.info
EA4EKH-11S49508052022-12-06 12:56:3643.4614-3.210591312822217Clb=4.3m/s t=-62.1C h=1.7% p=-1.0hPa 401.500 MHz Type=RS41-SG ser=S4950805 Radiosonde
EA1EF-14S49508052022-12-06 12:56:1843.4619-3.211121461922172Clb=4.7m/s t=-61.8C 401.50MHz Type=RS41-SG meteocampoo.es - http://radiosondy.info
EA1EF-14S49508052022-12-06 12:55:5143.4625-3.211681351322098Clb=4.9m/s t=-61.6C 401.50MHz Type=RS41-SG meteocampoo.es - http://radiosondy.info
EA4EKH-11S49508052022-12-06 12:55:4243.4626-3.211841511322076Clb=4.2m/s t=-61.5C h=1.7% p=-1.0hPa 401.500 MHz Type=RS41-SG ser=S4950805 Radiosonde
EA1EF-14S49508052022-12-06 12:55:2243.4629-3.212051511322031Clb=5.0m/s t=-62.2C 401.50MHz Type=RS41-SG meteocampoo.es - http://radiosondy.info
EA1EF-14S49508052022-12-06 12:54:5043.4633-3.21229194921959Clb=4.1m/s t=-62.5C 401.50MHz Type=RS41-SG meteocampoo.es - http://radiosondy.info
EA4EKH-11S49508052022-12-06 12:54:4343.4634-3.21228197621937Clb=5.1m/s t=-62.7C h=1.8% p=-1.0hPa 401.500 MHz Type=RS41-SG ser=S4950805 Radiosonde
EA1EF-14S49508052022-12-06 12:54:2443.4636-3.212042131321890Clb=4.7m/s t=-63.1C 401.50MHz Type=RS41-SG meteocampoo.es - http://radiosondy.info
EA1EF-14S49508052022-12-06 12:53:5743.4638-3.211382311521817Clb=5.3m/s t=-62.8C 401.50MHz Type=RS41-SG meteocampoo.es - http://radiosondy.info
EA4EKH-11S49508052022-12-06 12:53:5043.4639-3.211192271921799Clb=4.7m/s t=-62.6C h=1.8% p=-1.0hPa 401.500 MHz Type=RS41-SG ser=S4950805 Radiosonde
EA1EF-14S49508052022-12-06 12:53:2743.4642-3.210792441721746Clb=4.0m/s t=-62.9C 401.50MHz Type=RS41-SG meteocampoo.es - http://radiosondy.info
EA1EF-14S49508052022-12-06 12:52:5943.4647-3.21032102021673Clb=4.3m/s t=-62.8C 401.50MHz Type=RS41-SG meteocampoo.es - http://radiosondy.info
EA4EKH-11S49508052022-12-06 12:52:5543.4648-3.210212161321659Clb=3.6m/s t=-62.7C h=1.9% p=-1.0hPa 401.500 MHz Type=RS41-SG ser=S4950805 Radiosonde
EA1EF-14S49508052022-12-06 12:52:3043.4655-3.209732072221599Clb=4.6m/s t=-62.8C 401.50MHz Type=RS41-SG meteocampoo.es - http://radiosondy.info
EA1EF-14S49508052022-12-06 12:51:5143.4663-3.209252131721523Clb=4.5m/s t=-63.1C 401.50MHz Type=RS41-SG meteocampoo.es - http://radiosondy.info
EA4EKH-11S49508052022-12-06 12:51:4843.4664-3.209182141521513Clb=5.4m/s t=-63.1C h=1.9% p=-1.0hPa 401.500 MHz Type=RS41-SG ser=S4950805 Radiosonde
EA1EF-14S49508052022-12-06 12:51:2143.4669-3.208861891921445Clb=4.3m/s t=-63.3C 401.50MHz Type=RS41-SG meteocampoo.es - http://radiosondy.info
EA1EF-14S49508052022-12-06 12:50:5343.4675-3.208372361121367Clb=4.5m/s t=-63.1C 401.50MHz Type=RS41-SG meteocampoo.es - http://radiosondy.info
EA4EKH-11S49508052022-12-06 12:50:5243.4675-3.208342321121361Clb=5.9m/s t=-62.9C h=1.9% p=-1.0hPa 401.500 MHz Type=RS41-SG ser=S4950805 Radiosonde
EA1EF-14S49508052022-12-06 12:50:1943.4676-3.20789286721291Clb=3.9m/s t=-62.8C 401.50MHz Type=RS41-SG meteocampoo.es - http://radiosondy.info
EA1EF-14S49508052022-12-06 12:49:4743.4675-3.207492671321215Clb=3.8m/s t=-62.8C 401.50MHz Type=RS41-SG meteocampoo.es - http://radiosondy.info
EA1EF-14S49508052022-12-06 12:49:1343.4674-3.206892511121139Clb=4.6m/s t=-62.8C 401.50MHz Type=RS41-SG meteocampoo.es - http://radiosondy.info
EA4EKH-11S49508052022-12-06 12:48:4143.4675-3.206362351721070Clb=4.3m/s t=-63.1C h=1.9% p=-1.0hPa 401.500 MHz Type=RS41-SG ser=S4950805 Radiosonde
EA1EF-14S49508052022-12-06 12:48:3943.4675-3.206322331321066Clb=5.2m/s t=-63.3C 401.50MHz Type=RS41-SG meteocampoo.es - http://radiosondy.info
EA1EF-14S49508052022-12-06 12:48:0643.4679-3.205991981120993Clb=5.1m/s t=-63.1C 401.50MHz Type=RS41-SG meteocampoo.es - http://radiosondy.info
EA4EKH-11S49508052022-12-06 12:47:3643.4683-3.205911921120924Clb=5.1m/s t=-62.7C h=1.8% p=-1.0hPa 401.500 MHz Type=RS41-SG ser=S4950805 Radiosonde
EA1EF-14S49508052022-12-06 12:47:3243.4684-3.2059193920920Clb=3.8m/s t=-62.8C 401.50MHz Type=RS41-SG meteocampoo.es - http://radiosondy.info
EA1EF-14S49508052022-12-06 12:47:0043.4687-3.20579202920848Clb=4.0m/s t=-62.5C 401.50MHz Type=RS41-SG meteocampoo.es - http://radiosondy.info
EA4EKH-11S49508052022-12-06 12:46:3743.469-3.205722051320788Clb=4.3m/s t=-62.5C h=1.7% p=-1.0hPa 401.500 MHz Type=RS41-SG ser=S4950805 Radiosonde
EA1EF-14S49508052022-12-06 12:46:3243.4691-3.205681911320774Clb=4.8m/s t=-62.8C 401.50MHz Type=RS41-SG meteocampoo.es - http://radiosondy.info
EA1EF-14S49508052022-12-06 12:46:0243.4696-3.205422032220702Clb=3.9m/s t=-62.5C 401.50MHz Type=RS41-SG meteocampoo.es - http://radiosondy.info
EA4EKH-11S49508052022-12-06 12:45:3843.4702-3.205142082420644Clb=4.6m/s t=-62.2C h=1.7% p=-1.0hPa 401.500 MHz Type=RS41-SG ser=S4950805 Radiosonde
EA1EF-14S49508052022-12-06 12:45:3243.4704-3.205032092420631Clb=4.6m/s t=-62.2C 401.50MHz Type=RS41-SG meteocampoo.es - http://radiosondy.info
EA1EF-14S49508052022-12-06 12:44:5443.4713-3.204532112620561Clb=4.3m/s t=-61.7C 401.50MHz Type=RS41-SG meteocampoo.es - http://radiosondy.info
EA4EKH-11S49508052022-12-06 12:44:3243.472-3.204182023120509Clb=4.2m/s t=-61.4C h=1.7% p=-1.0hPa 401.500 MHz Type=RS41-SG ser=S4950805 Radiosonde
EA1EF-14S49508052022-12-06 12:44:2343.4723-3.204061962820493Clb=4.7m/s t=-61.4C 401.50MHz Type=RS41-SG meteocampoo.es - http://radiosondy.info
EA1EF-14S49508052022-12-06 12:43:5943.4733-3.203631893320420Clb=4.1m/s t=-60.9C 401.50MHz Type=RS41-SG meteocampoo.es - http://radiosondy.info
EA4EKH-11S49508052022-12-06 12:43:5843.4743-3.203332063120372Clb=4.5m/s t=-60.8C h=1.7% p=-1.0hPa 401.500 MHz Type=RS41-SG ser=S4950805 Radiosonde
EA1EF-14S49508052022-12-06 12:43:5743.4747-3.203181893720351Clb=3.6m/s t=-60.9C 401.50MHz Type=RS41-SG meteocampoo.es - http://radiosondy.info
EA1EF-14S49508052022-12-06 12:43:5143.4761-3.20311753520277Clb=4.9m/s t=-60.8C 401.50MHz Type=RS41-SG meteocampoo.es - http://radiosondy.info
EA4EKH-11S49508052022-12-06 12:43:5043.4771-3.203291673020232Clb=5.2m/s t=-60.4C h=1.6% p=-1.0hPa 401.500 MHz Type=RS41-SG ser=S4950805 Radiosonde
EA1EF-14S49508052022-12-06 12:43:4943.4787-3.204241563120130Clb=5.0m/s t=-60.2C 401.50MHz Type=RS41-SG meteocampoo.es - http://radiosondy.info
EA4EKH-11S49508052022-12-06 12:43:4843.4793-3.204721403320089Clb=3.9m/s t=-60.4C h=1.7% p=-1.0hPa 401.500 MHz Type=RS41-SG ser=S4950805 Radiosonde
EA1EF-14S49508052022-12-06 12:43:4543.4797-3.205211433120057Clb=3.9m/s t=-60.7C 401.50MHz Type=RS41-SG meteocampoo.es - http://radiosondy.info
EA1EF-14S49508052022-12-06 12:43:3843.4806-3.206461202819984Clb=4.5m/s t=-61.1C 401.50MHz Type=RS41-SG meteocampoo.es - http://radiosondy.info
EA4EKH-11S49508052022-12-06 12:43:3443.4809-3.207151303019948Clb=4.9m/s t=-61.2C h=1.8% p=-1.0hPa 401.500 MHz Type=RS41-SG ser=S4950805 Radiosonde
EA1EF-14S49508052022-12-06 12:43:3143.4812-3.207741162019912Clb=4.2m/s t=-61.7C 401.50MHz Type=RS41-SG meteocampoo.es - http://radiosondy.info
EA1EF-14S49508052022-12-06 12:43:2243.4817-3.208551281519840Clb=4.9m/s t=-62.8C 401.50MHz Type=RS41-SG meteocampoo.es - http://radiosondy.info
EA4EKH-11S49508052022-12-06 12:43:1843.4819-3.208741621719810Clb=5.0m/s t=-62.5C h=1.9% p=-1.0hPa 401.500 MHz Type=RS41-SG ser=S4950805 Radiosonde
EA1EF-14S49508052022-12-06 12:43:0743.4822-3.20891561919769Clb=5.0m/s t=-62.7C 401.50MHz Type=RS41-SG meteocampoo.es - http://radiosondy.info
EA1EF-14S49508052022-12-06 12:42:4643.4829-3.209071812419702Clb=5.0m/s t=-63.0C 401.50MHz Type=RS41-SG meteocampoo.es - http://radiosondy.info
EA4EKH-11S49508052022-12-06 12:42:3843.4833-3.209081732419675Clb=4.5m/s t=-62.7C h=2.0% p=-1.0hPa 401.500 MHz Type=RS41-SG ser=S4950805 Radiosonde
EA1EF-14S49508052022-12-06 12:42:2143.4839-3.209251732419633Clb=4.6m/s t=-63.4C 401.50MHz Type=RS41-SG meteocampoo.es - http://radiosondy.info
EA1EF-14S49508052022-12-06 12:42:0043.4848-3.209691592619565Clb=3.3m/s t=-63.2C 401.50MHz Type=RS41-SG meteocampoo.es - http://radiosondy.info
EA1EF-14S49508052022-12-06 12:41:5943.4857-3.210271413119500Clb=5.1m/s t=-63.1C 401.50MHz Type=RS41-SG meteocampoo.es - http://radiosondy.info
EA1EF-14S49508052022-12-06 12:41:5643.4868-3.211221313719433Clb=3.7m/s t=-62.6C 401.50MHz Type=RS41-SG meteocampoo.es - http://radiosondy.info
EA1EF-14S49508052022-12-06 12:41:5443.4879-3.212471383919362Clb=4.3m/s t=-62.3C 401.50MHz Type=RS41-SG meteocampoo.es - http://radiosondy.info
EA1EF-14S49508052022-12-06 12:41:5243.4889-3.214051253319292Clb=3.8m/s t=-62.5C 401.50MHz Type=RS41-SG meteocampoo.es - http://radiosondy.info
EA1EF-14S49508052022-12-06 12:41:5143.4895-3.215581252819224Clb=5.2m/s t=-62.0C 401.50MHz Type=RS41-SG meteocampoo.es - http://radiosondy.info
EA1EF-14S49508052022-12-06 12:41:5043.49-3.216981183019155Clb=4.8m/s t=-61.7C 401.50MHz Type=RS41-SG meteocampoo.es - http://radiosondy.info
EA4EKH-11S49508052022-12-06 12:41:4943.4901-3.217181143019146Clb=4.6m/s t=-61.4C h=1.9% p=-1.0hPa 401.500 MHz Type=RS41-SG ser=S4950805 Radiosonde
EA1EF-14S49508052022-12-06 12:41:4843.4904-3.21992942819020Clb=4.3m/s t=-61.7C 401.50MHz Type=RS41-SG meteocampoo.es - http://radiosondy.info
EA1EF-14S49508052022-12-06 12:41:4643.4901-3.22136752618956Clb=3.9m/s t=-61.9C 401.50MHz Type=RS41-SG meteocampoo.es - http://radiosondy.info
EA1EF-14S49508052022-12-06 12:41:4443.4897-3.22262762018890Clb=3.3m/s t=-61.9C 401.50MHz Type=RS41-SG meteocampoo.es - http://radiosondy.info
EA1EF-14S49508052022-12-06 12:41:3443.4893-3.22342701718824Clb=5.0m/s t=-62.0C 401.50MHz Type=RS41-SG meteocampoo.es - http://radiosondy.info
EA4EKH-11S49508052022-12-06 12:41:1643.489-3.22422561318755Clb=3.5m/s t=-62.0C h=2.1% p=-1.0hPa 401.500 MHz Type=RS41-SG ser=S4950805 Radiosonde
EA1EF-14S49508052022-12-06 12:41:1543.489-3.22422571718755Clb=3.4m/s t=-62.1C 401.50MHz Type=RS41-SG meteocampoo.es - http://radiosondy.info
EA1EF-14S49508052022-12-06 12:40:5843.4889-3.22509961718686Clb=4.5m/s t=-62.5C 401.50MHz Type=RS41-SG meteocampoo.es - http://radiosondy.info
EA4EKH-11S49508052022-12-06 12:40:3243.489-3.225911061518623Clb=3.5m/s t=-62.4C h=2.2% p=-1.0hPa 401.500 MHz Type=RS41-SG ser=S4950805 Radiosonde
EA1EF-14S49508052022-12-06 12:40:2443.4891-3.226031181318611Clb=3.4m/s t=-62.4C 401.50MHz Type=RS41-SG meteocampoo.es - http://radiosondy.info
EA1EF-14S49508052022-12-06 12:39:5143.4894-3.226681411918545Clb=3.4m/s t=-62.1C 401.50MHz Type=RS41-SG meteocampoo.es - http://radiosondy.info
EA4EKH-11S49508052022-12-06 12:39:2943.4896-3.22731202218495Clb=4.6m/s t=-61.7C h=2.1% p=-1.0hPa 401.500 MHz Type=RS41-SG ser=S4950805 Radiosonde
EA1EF-14S49508052022-12-06 12:39:1843.4897-3.227581142018479Clb=3.6m/s t=-61.8C 401.50MHz Type=RS41-SG meteocampoo.es - http://radiosondy.info
EA1EF-14S49508052022-12-06 12:38:4143.49-3.228651002818412Clb=5.3m/s t=-61.8C 401.50MHz Type=RS41-SG meteocampoo.es - http://radiosondy.info
EA4EKH-11S49508052022-12-06 12:38:1843.4902-3.229631002818365Clb=4.0m/s t=-61.9C h=2.0% p=-1.0hPa 401.500 MHz Type=RS41-SG ser=S4950805 Radiosonde
EA1EF-14S49508052022-12-06 12:38:0643.4903-3.230151043018343Clb=3.8m/s t=-61.8C 401.50MHz Type=RS41-SG meteocampoo.es - http://radiosondy.info
EA1EF-14S49508052022-12-06 12:37:2843.4903-3.23168922418276Clb=4.5m/s t=-61.4C 401.50MHz Type=RS41-SG meteocampoo.es - http://radiosondy.info
EA4EKH-11S49508052022-12-06 12:37:0543.4903-3.23249672018235Clb=3.7m/s t=-61.1C h=1.9% p=-1.0hPa 401.500 MHz Type=RS41-SG ser=S4950805 Radiosonde
EA1EF-14S49508052022-12-06 12:36:5043.4902-3.23295902218210Clb=3.5m/s t=-61.1C 401.50MHz Type=RS41-SG meteocampoo.es - http://radiosondy.info
EA1EF-14S49508052022-12-06 12:36:1543.4902-3.23415952218141Clb=4.3m/s t=-61.7C 401.50MHz Type=RS41-SG meteocampoo.es - http://radiosondy.info
EA4EKH-11S49508052022-12-06 12:35:5743.4901-3.23493841718103Clb=2.9m/s t=-61.1C h=2.0% p=-1.0hPa 401.500 MHz Type=RS41-SG ser=S4950805 Radiosonde
EA1EF-14S49508052022-12-06 12:35:4143.4901-3.23533802018074Clb=4.3m/s t=-61.1C 401.50MHz Type=RS41-SG meteocampoo.es - http://radiosondy.info
EA1EF-14S49508052022-12-06 12:34:5543.49-3.2364861318009Clb=4.6m/s t=-60.8C 401.50MHz Type=RS41-SG meteocampoo.es - http://radiosondy.info
EA4EKH-11S49508052022-12-06 12:34:3443.49-3.23678861117972Clb=4.2m/s t=-60.6C h=2.1% p=-1.0hPa 401.500 MHz Type=RS41-SG ser=S4950805 Radiosonde
EA1EF-14S49508052022-12-06 12:34:1343.4901-3.237091201717940Clb=4.8m/s t=-60.9C 401.50MHz Type=RS41-SG meteocampoo.es - http://radiosondy.info
EA1EF-14S49508052022-12-06 12:33:3543.4901-3.23801811917872Clb=3.0m/s t=-60.7C 401.50MHz Type=RS41-SG meteocampoo.es - http://radiosondy.info
EA4EKH-11S49508052022-12-06 12:33:1843.4901-3.2384922017842Clb=4.9m/s t=-60.5C h=2.0% p=-1.0hPa 401.500 MHz Type=RS41-SG ser=S4950805 Radiosonde
EA1EF-14S49508052022-12-06 12:32:5243.4984-3.32222914815322Clb=4.1m/s t=-63.3C 401.50MHz Type=RS41-SG meteocampoo.es - http://radiosondy.info
EA4EKH-11S49508052022-12-06 12:32:2943.4983-3.32375914415283Clb=5.3m/s t=-63.4C h=2.8% p=-1.0hPa 401.500 MHz Type=RS41-SG ser=S4950805 Radiosonde
EA1EF-14S49508052022-12-06 12:32:1143.4983-3.32479794415255Clb=3.9m/s t=-63.3C 401.50MHz Type=RS41-SG meteocampoo.es - http://radiosondy.info
EA1EF-14S49508052022-12-06 12:31:3043.4981-3.32723883915190Clb=3.3m/s t=-63.1C 401.50MHz Type=RS41-SG meteocampoo.es - http://radiosondy.info
EA4EKH-11S49508052022-12-06 12:31:1543.4981-3.32827933515159Clb=3.9m/s t=-62.8C h=2.7% p=-1.0hPa 401.500 MHz Type=RS41-SG ser=S4950805 Radiosonde
EA1EF-14S49508052022-12-06 12:30:5543.4981-3.32936943915126Clb=3.3m/s t=-62.7C 401.50MHz Type=RS41-SG meteocampoo.es - http://radiosondy.info
EA1EF-14S49508052022-12-06 12:30:1443.4983-3.33177984115052Clb=3.9m/s t=-62.1C 401.50MHz Type=RS41-SG meteocampoo.es - http://radiosondy.info
EA4EKH-11S49508052022-12-06 12:30:0143.4984-3.33239983515031Clb=4.2m/s t=-62.0C h=2.5% p=-1.0hPa 401.500 MHz Type=RS41-SG ser=S4950805 Radiosonde
EA1EF-14S49508052022-12-06 12:29:3343.4986-3.334994414988Clb=4.4m/s t=-62.0C 401.50MHz Type=RS41-SG meteocampoo.es - http://radiosondy.info
EA1EF-14S49508052022-12-06 12:28:5743.499-3.336381064314922Clb=3.4m/s t=-61.6C 401.50MHz Type=RS41-SG meteocampoo.es - http://radiosondy.info
EA4EKH-11S49508052022-12-06 12:28:4843.4991-3.336921083914907Clb=4.5m/s t=-61.5C h=2.6% p=-1.0hPa 401.500 MHz Type=RS41-SG ser=S4950805 Radiosonde
EA1EF-14S49508052022-12-06 12:28:2143.4995-3.338651114814859Clb=3.6m/s t=-61.6C 401.50MHz Type=RS41-SG meteocampoo.es - http://radiosondy.info
EA1EF-14S49508052022-12-06 12:27:4543.5003-3.341071194814793Clb=3.5m/s t=-61.0C 401.50MHz Type=RS41-SG meteocampoo.es - http://radiosondy.info
EA4EKH-11S49508052022-12-06 12:27:3843.5005-3.341531215014781Clb=3.8m/s t=-60.8C h=2.4% p=-1.0hPa 401.500 MHz Type=RS41-SG ser=S4950805 Radiosonde
EA1EF-14S49508052022-12-06 12:27:1043.5014-3.343361225414731Clb=4.0m/s t=-60.7C 401.50MHz Type=RS41-SG meteocampoo.es - http://radiosondy.info
EA1EF-14S49508052022-12-06 12:26:3943.5025-3.345811205414664Clb=4.0m/s t=-60.4C 401.50MHz Type=RS41-SG meteocampoo.es - http://radiosondy.info
EA4EKH-11S49508052022-12-06 12:26:3443.5027-3.346131185214654Clb=4.0m/s t=-60.3C h=2.3% p=-1.0hPa 401.500 MHz Type=RS41-SG ser=S4950805 Radiosonde
EA1EF-14S49508052022-12-06 12:26:0443.5034-3.348521135614598Clb=4.0m/s t=-60.1C 401.50MHz Type=RS41-SG meteocampoo.es - http://radiosondy.info
EA1EF-14S49508052022-12-06 12:25:2943.5041-3.351421085614533Clb=3.1m/s t=-59.7C 401.50MHz Type=RS41-SG meteocampoo.es - http://radiosondy.info
EA4EKH-11S49508052022-12-06 12:25:2643.5042-3.351781055414525Clb=4.8m/s t=-59.6C h=2.1% p=-1.0hPa 401.500 MHz Type=RS41-SG ser=S4950805 Radiosonde
EA1EF-14S49508052022-12-06 12:24:4543.5047-3.354321075014469Clb=3.9m/s t=-59.1C 401.50MHz Type=RS41-SG meteocampoo.es - http://radiosondy.info
EA1EF-14S49508052022-12-06 12:24:0943.5052-3.357011055614407Clb=4.5m/s t=-58.7C 401.50MHz Type=RS41-SG meteocampoo.es - http://radiosondy.info
EA4EKH-11S49508052022-12-06 12:24:0843.5052-3.35721025714403Clb=3.3m/s t=-58.5C h=2.1% p=-1.0hPa 401.500 MHz Type=RS41-SG ser=S4950805 Radiosonde
EA1EF-14S49508052022-12-06 12:23:3143.5056-3.35995995614345Clb=4.2m/s t=-58.4C 401.50MHz Type=RS41-SG meteocampoo.es - http://radiosondy.info
EA1EF-14S49508052022-12-06 12:22:5443.5059-3.36294975214285Clb=3.8m/s t=-58.2C 401.50MHz Type=RS41-SG meteocampoo.es - http://radiosondy.info
EA1EF-14S49508052022-12-06 12:22:1343.506-3.36577915614224Clb=3.6m/s t=-57.9C 401.50MHz Type=RS41-SG meteocampoo.es - http://radiosondy.info
EA4EKH-11S49508052022-12-06 12:21:3943.5059-3.36859845714166Clb=3.3m/s t=-57.9C h=1.9% p=-1.0hPa 401.500 MHz Type=RS41-SG ser=S4950805 Radiosonde
EA1EF-14S49508052022-12-06 12:21:3643.5059-3.36879876114162Clb=4.5m/s t=-58.0C 401.50MHz Type=RS41-SG meteocampoo.es - http://radiosondy.info
EA1EF-14S49508052022-12-06 12:20:5343.5059-3.37223917014102Clb=3.9m/s t=-57.8C 401.50MHz Type=RS41-SG meteocampoo.es - http://radiosondy.info
EA4EKH-11S49508052022-12-06 12:20:1443.5058-3.37559897414047Clb=3.9m/s t=-57.4C h=1.9% p=-1.0hPa 401.500 MHz Type=RS41-SG ser=S4950805 Radiosonde
EA1EF-14S49508052022-12-06 12:19:5943.5058-3.37611907614040Clb=4.6m/s t=-57.5C 401.50MHz Type=RS41-SG meteocampoo.es - http://radiosondy.info
EA1EF-14S49508052022-12-06 12:18:5943.5059-3.38023918013980Clb=3.6m/s t=-57.4C 401.50MHz Type=RS41-SG meteocampoo.es - http://radiosondy.info
EA4EKH-11S49508052022-12-06 12:18:2843.5059-3.38377918013932Clb=3.6m/s t=-57.1C h=1.9% p=-1.0hPa 401.500 MHz Type=RS41-SG ser=S4950805 Radiosonde
EA1EF-14S49508052022-12-06 12:18:1443.5059-3.38516868013914Clb=3.0m/s t=-57.1C 401.50MHz Type=RS41-SG meteocampoo.es - http://radiosondy.info
EA1EF-14S49508052022-12-06 12:17:3443.5057-3.39012858113848Clb=4.5m/s t=-57.3C 401.50MHz Type=RS41-SG meteocampoo.es - http://radiosondy.info
EA4EKH-11S49508052022-12-06 12:17:1743.5055-3.39234838013820Clb=3.4m/s t=-57.1C h=2.0% p=-1.0hPa 401.500 MHz Type=RS41-SG ser=S4950805 Radiosonde
EA1EF-14S49508052022-12-06 12:17:0043.5053-3.39451828113792Clb=3.4m/s t=-57.1C 401.50MHz Type=RS41-SG meteocampoo.es - http://radiosondy.info
EA1EF-14S49508052022-12-06 12:16:2743.5051-3.39901888013733Clb=3.6m/s t=-57.2C 401.50MHz Type=RS41-SG meteocampoo.es - http://radiosondy.info
EA4EKH-11S49508052022-12-06 12:16:0643.505-3.40093867613708Clb=3.3m/s t=-57.2C h=2.0% p=-1.0hPa 401.500 MHz Type=RS41-SG ser=S4950805 Radiosonde
EA1EF-14S49508052022-12-06 12:16:0043.5048-3.40389818013668Clb=3.3m/s t=-57.5C 401.50MHz Type=RS41-SG meteocampoo.es - http://radiosondy.info
EA1EF-14S49508052022-12-06 12:15:5843.5042-3.40819807613608Clb=3.0m/s t=-57.6C 401.50MHz Type=RS41-SG meteocampoo.es - http://radiosondy.info
EA1EF-14S49508052022-12-06 12:15:5643.5035-3.41284776913540Clb=3.9m/s t=-57.4C 401.50MHz Type=RS41-SG meteocampoo.es - http://radiosondy.info
EA1EF-14S49508052022-12-06 12:15:5543.5028-3.41648736313478Clb=3.3m/s t=-57.1C 401.50MHz Type=RS41-SG meteocampoo.es - http://radiosondy.info
EA1EF-14S49508052022-12-06 12:15:5443.5022-3.41983756113418Clb=3.9m/s t=-57.1C 401.50MHz Type=RS41-SG meteocampoo.es - http://radiosondy.info
EA4EKH-11S49508052022-12-06 12:15:5243.5017-3.42307795913356Clb=3.7m/s t=-56.6C h=2.4% p=-1.0hPa 401.500 MHz Type=RS41-SG ser=S4950805 Radiosonde
EA1EF-14S49508052022-12-06 12:15:5043.5011-3.4264796113293Clb=4.0m/s t=-56.3C 401.50MHz Type=RS41-SG meteocampoo.es - http://radiosondy.info
EA4EKH-11S49508052022-12-06 12:15:4843.5005-3.42949805913233Clb=4.0m/s t=-56.7C h=2.6% p=-1.0hPa 401.500 MHz Type=RS41-SG ser=S4950805 Radiosonde
EA1EF-14S49508052022-12-06 12:15:4643.5-3.43316787213168Clb=3.9m/s t=-56.9C 401.50MHz Type=RS41-SG meteocampoo.es - http://radiosondy.info
EA4EKH-11S49508052022-12-06 12:15:4543.4994-3.43656737413110Clb=4.8m/s t=-57.1C h=2.7% p=-1.0hPa 401.500 MHz Type=RS41-SG ser=S4950805 Radiosonde
EA1EF-14S49508052022-12-06 12:15:3143.4986-3.44093746713038Clb=3.3m/s t=-56.8C 401.50MHz Type=RS41-SG meteocampoo.es - http://radiosondy.info
EA4EKH-11S49508052022-12-06 12:15:2443.4982-3.44383776312986Clb=3.5m/s t=-56.6C h=2.9% p=-1.0hPa 401.500 MHz Type=RS41-SG ser=S4950805 Radiosonde
EA1EF-14S49508052022-12-06 12:15:2343.4981-3.44447806112975Clb=3.7m/s t=-56.7C 401.50MHz Type=RS41-SG meteocampoo.es - http://radiosondy.info
EA1EF-14S49508052022-12-06 12:15:0543.4978-3.4478875912909Clb=3.4m/s t=-56.9C 401.50MHz Type=RS41-SG meteocampoo.es - http://radiosondy.info
EA4EKH-11S49508052022-12-06 12:14:5243.4976-3.45022826112862Clb=3.4m/s t=-57.1C h=3.4% p=-1.0hPa 401.500 MHz Type=RS41-SG ser=S4950805 Radiosonde
EA1EF-14S49508052022-12-06 12:14:4543.4975-3.45105856312847Clb=3.9m/s t=-57.3C 401.50MHz Type=RS41-SG meteocampoo.es - http://radiosondy.info
EA1EF-14S49508052022-12-06 12:14:0243.4974-3.45488926512777Clb=3.7m/s t=-57.7C 401.50MHz Type=RS41-SG meteocampoo.es - http://radiosondy.info
EA4EKH-11S49508052022-12-06 12:13:4543.4974-3.45692916312742Clb=3.3m/s t=-57.5C h=4.2% p=-1.0hPa 401.500 MHz Type=RS41-SG ser=S4950805 Radiosonde
EA1EF-14S49508052022-12-06 12:13:3043.4974-3.45849886512715Clb=4.0m/s t=-57.7C 401.50MHz Type=RS41-SG meteocampoo.es - http://radiosondy.info
EA1EF-14S49508052022-12-06 12:12:4543.4973-3.46266865912645Clb=3.3m/s t=-57.6C 401.50MHz Type=RS41-SG meteocampoo.es - http://radiosondy.info
EA4EKH-11S49508052022-12-06 12:12:3543.4973-3.46386885912621Clb=4.1m/s t=-57.5C h=4.2% p=-1.0hPa 401.500 MHz Type=RS41-SG ser=S4950805 Radiosonde
EA1JAY-16S49508052022-12-06 12:12:2743.4973-3.46428946312614Clb=4.3m/s t=-57.6C h=4.3% 401.500MHz Type=RS41-SG rdzTTGOsonde
EA1EF-14S49508052022-12-06 12:12:1043.4973-3.46594885912585Clb=4.2m/s t=-57.8C 401.50MHz Type=RS41-SG meteocampoo.es - http://radiosondy.info
EA1JAY-16S49508052022-12-06 12:11:2243.4972-3.46987905712514Clb=3.4m/s t=-57.7C h=4.9% 401.500MHz Type=RS41-SG rdzTTGOsonde
EA4EKH-11S49508052022-12-06 12:11:2143.4972-3.47028875912507Clb=3.2m/s t=-57.6C h=4.8% p=-1.0hPa 401.500 MHz Type=RS41-SG ser=S4950805 Radiosonde
EA1EF-14S49508052022-12-06 12:11:1643.4971-3.47069896112500Clb=3.6m/s t=-57.7C 401.50MHz Type=RS41-SG meteocampoo.es - http://radiosondy.info
EA1EF-14S49508052022-12-06 12:10:3743.4971-3.47403856112438Clb=3.6m/s t=-57.9C 401.50MHz Type=RS41-SG meteocampoo.es - http://radiosondy.info
EA1EF-14S49508052022-12-06 12:09:4743.476-3.6012471489901Clb=4.9m/s t=-50.8C 401.50MHz Type=RS41-SG meteocampoo.es - http://radiosondy.info
EA1JAY-16S49508052022-12-06 12:09:3843.4759-3.6015771509893Clb=4.4m/s t=-50.7C h=10.8% 401.500MHz Type=RS41-SG rdzTTGOsonde
EA1EF-14S49508052022-12-06 12:09:0243.4753-3.6036976489832Clb=4.6m/s t=-50.4C 401.50MHz Type=RS41-SG meteocampoo.es - http://radiosondy.info
EA1JAY-16S49508052022-12-06 12:08:4843.4752-3.6046483489807Clb=4.0m/s t=-50.1C h=10.9% 401.500MHz Type=RS41-SG rdzTTGOsonde
EA1EF-14S49508052022-12-06 12:08:2243.475-3.606481489760Clb=3.9m/s t=-50.0C 401.50MHz Type=RS41-SG meteocampoo.es - http://radiosondy.info
EA1JAY-16S49508052022-12-06 12:07:5243.4748-3.6080184509722Clb=3.7m/s t=-50.0C h=11.9% 401.500MHz Type=RS41-SG rdzTTGOsonde
EA1EF-14S49508052022-12-06 12:07:3843.4748-3.6090687509702Clb=3.4m/s t=-50.1C 401.50MHz Type=RS41-SG meteocampoo.es - http://radiosondy.info
EA1EF-14S49508052022-12-06 12:07:0243.4746-3.6115987529647Clb=3.1m/s t=-49.8C 401.50MHz Type=RS41-SG meteocampoo.es - http://radiosondy.info
EA1JAY-16S49508052022-12-06 12:07:0043.4746-3.6115988509647Clb=3.1m/s t=-49.7C h=12.5% 401.500MHz Type=RS41-SG rdzTTGOsonde
EA1JAY-16S49508052022-12-06 12:06:1543.4746-3.6151892549575Clb=3.5m/s t=-49.4C h=13.5% 401.500MHz Type=RS41-SG rdzTTGOsonde
EA1EF-14S49508052022-12-06 12:05:4743.4746-3.6176296569529Clb=4.0m/s t=-49.3C 401.50MHz Type=RS41-SG meteocampoo.es - http://radiosondy.info
EA1JAY-16S49508052022-12-06 12:05:2343.4747-3.6192891569497Clb=3.8m/s t=-49.1C h=17.5% 401.500MHz Type=RS41-SG rdzTTGOsonde
EA1EF-14S49508052022-12-06 12:04:3843.4747-3.6230186579431Clb=3.3m/s t=-49.5C 401.50MHz Type=RS41-SG meteocampoo.es - http://radiosondy.info
EA1JAY-16S49508052022-12-06 12:04:2643.4746-3.6236386619420Clb=3.7m/s t=-49.3C h=28.7% 401.500MHz Type=RS41-SG rdzTTGOsonde
EA1EF-14S49508052022-12-06 12:03:5543.4745-3.6262189569373Clb=3.3m/s t=-49.0C 401.50MHz Type=RS41-SG meteocampoo.es - http://radiosondy.info
EA1JAY-16S49508052022-12-06 12:03:3743.4745-3.6275286549349Clb=4.0m/s t=-48.7C h=23.3% 401.500MHz Type=RS41-SG rdzTTGOsonde
EA1EF-14S49508052022-12-06 12:03:1843.4744-3.629388549317Clb=3.8m/s t=-48.4C 401.50MHz Type=RS41-SG meteocampoo.es - http://radiosondy.info
EA1JAY-16S49508052022-12-06 12:02:4843.4743-3.6317587569272Clb=3.0m/s t=-48.1C h=12.6% 401.500MHz Type=RS41-SG rdzTTGOsonde
EA1EF-14S49508052022-12-06 12:02:2243.4742-3.6341188549224Clb=2.8m/s t=-47.9C 401.50MHz Type=RS41-SG meteocampoo.es - http://radiosondy.info
EA1JAY-16S49508052022-12-06 12:02:0343.4742-3.6353789529199Clb=3.7m/s t=-47.6C h=13.6% 401.500MHz Type=RS41-SG rdzTTGOsonde
EA1EF-14S49508052022-12-06 12:01:4543.4741-3.6372286549163Clb=3.2m/s t=-47.4C 401.50MHz Type=RS41-SG meteocampoo.es - http://radiosondy.info
EA1JAY-16S49508052022-12-06 12:01:1543.474-3.6395686549117Clb=3.4m/s t=-46.8C h=12.5% 401.500MHz Type=RS41-SG rdzTTGOsonde
EA1EF-14S49508052022-12-06 12:01:0543.4739-3.6406386529097Clb=4.1m/s t=-46.8C 401.50MHz Type=RS41-SG meteocampoo.es - http://radiosondy.info
EA1JAY-16S49508052022-12-06 12:00:3043.4737-3.6432488489043Clb=3.3m/s t=-46.2C h=11.7% 401.500MHz Type=RS41-SG rdzTTGOsonde
EA1EF-14S49508052022-12-06 12:00:2943.4737-3.643485489039Clb=3.4m/s t=-46.3C 401.50MHz Type=RS41-SG meteocampoo.es - http://radiosondy.info
EA1EF-14S49508052022-12-06 11:59:4643.4736-3.6460787488982Clb=3.9m/s t=-45.8C 401.50MHz Type=RS41-SG meteocampoo.es - http://radiosondy.info
EA1JAY-16S49508052022-12-06 11:59:2843.4735-3.647187488962Clb=3.3m/s t=-45.6C h=11.5% 401.500MHz Type=RS41-SG rdzTTGOsonde
EA1EF-14S49508052022-12-06 11:59:0243.4734-3.6487185468926Clb=4.0m/s t=-45.4C 401.50MHz Type=RS41-SG meteocampoo.es - http://radiosondy.info
EA1JAY-16S49508052022-12-06 11:58:3143.4733-3.6506391448882Clb=3.6m/s t=-44.9C h=11.6% 401.500MHz Type=RS41-SG rdzTTGOsonde
EA1EF-14S49508052022-12-06 11:58:2343.4733-3.6512489468867Clb=3.5m/s t=-44.9C 401.50MHz Type=RS41-SG meteocampoo.es - http://radiosondy.info
EA1EF-14S49508052022-12-06 11:57:3943.4733-3.6537788468811Clb=3.8m/s t=-44.6C 401.50MHz Type=RS41-SG meteocampoo.es - http://radiosondy.info
EA1JAY-16S49508052022-12-06 11:57:3843.4733-3.6537789448811Clb=3.8m/s t=-44.5C h=13.8% 401.500MHz Type=RS41-SG rdzTTGOsonde
EA1EF-14S49508052022-12-06 11:57:0543.4732-3.6562992468753Clb=3.9m/s t=-44.1C 401.50MHz Type=RS41-SG meteocampoo.es - http://radiosondy.info
EA1JAY-16S49508052022-12-06 11:56:5443.4733-3.656994448739Clb=4.1m/s t=-43.9C h=21.1% 401.500MHz Type=RS41-SG rdzTTGOsonde
EA1EF-14S49508052022-12-06 11:56:2943.4733-3.6588696488695Clb=4.0m/s t=-43.7C 401.50MHz Type=RS41-SG meteocampoo.es - http://radiosondy.info
EA1JAY-16S49508052022-12-06 11:56:1043.4734-3.6603896488662Clb=3.8m/s t=-43.2C h=24.4% 401.500MHz Type=RS41-SG rdzTTGOsonde
EA1EF-14S49508052022-12-06 11:55:5843.4734-3.6615493508636Clb=3.4m/s t=-43.2C 401.50MHz Type=RS41-SG meteocampoo.es - http://radiosondy.info
EA1JAY-16S49508052022-12-06 11:55:2643.4735-3.6637792528590Clb=2.5m/s t=-43.8C h=40.9% 401.500MHz Type=RS41-SG rdzTTGOsonde
EA1EF-14S49508052022-12-06 11:55:2243.4735-3.6642991508579Clb=3.4m/s t=-44.0C 401.50MHz Type=RS41-SG meteocampoo.es - http://radiosondy.info
EA1EF-14S49508052022-12-06 11:54:4443.4737-3.6670395528520Clb=3.8m/s t=-43.5C 401.50MHz Type=RS41-SG meteocampoo.es - http://radiosondy.info
EA1JAY-16S49508052022-12-06 11:54:3843.4737-3.6673895548513Clb=3.9m/s t=-43.3C h=36.6% 401.500MHz Type=RS41-SG rdzTTGOsonde
EA1EF-14S49508052022-12-06 11:54:0543.4739-3.6698694528464Clb=3.6m/s t=-43.1C 401.50MHz Type=RS41-SG meteocampoo.es - http://radiosondy.info
EA1JAY-16S49508052022-12-06 11:53:4843.4739-3.6711495528439Clb=3.5m/s t=-42.7C h=34.3% 401.500MHz Type=RS41-SG rdzTTGOsonde
EA1EF-14S49508052022-12-06 11:53:2643.474-3.6727195508407Clb=3.3m/s t=-42.5C 401.50MHz Type=RS41-SG meteocampoo.es - http://radiosondy.info
EA1JAY-16S49508052022-12-06 11:52:5443.4741-3.6746294508367Clb=4.2m/s t=-42.0C h=29.7% 401.500MHz Type=RS41-SG rdzTTGOsonde
EA1EF-14S49508052022-12-06 11:52:4543.4741-3.675595508349Clb=4.0m/s t=-41.8C 401.50MHz Type=RS41-SG meteocampoo.es - http://radiosondy.info
EA1JAY-16S49508052022-12-06 11:52:0343.4743-3.6782893508291Clb=3.2m/s t=-41.2C h=25.5% 401.500MHz Type=RS41-SG rdzTTGOsonde
EA1EF-14S49508052022-12-06 11:51:4643.4744-3.6810596508232Clb=2.5m/s t=-40.7C 401.50MHz Type=RS41-SG meteocampoo.es - http://radiosondy.info
EA1JAY-16S49508052022-12-06 11:51:4543.4744-3.6818797508214Clb=3.1m/s t=-40.5C h=21.7% 401.500MHz Type=RS41-SG rdzTTGOsonde
EA1EF-14S49508052022-12-06 11:51:4043.4745-3.6837490488174Clb=3.4m/s t=-40.2C 401.50MHz Type=RS41-SG meteocampoo.es - http://radiosondy.info
EA1JAY-16S49508052022-12-06 11:51:2743.4746-3.6854294488139Clb=3.1m/s t=-39.9C h=18.1% 401.500MHz Type=RS41-SG rdzTTGOsonde
EA1EF-14S49508052022-12-06 11:51:1943.4746-3.6864492488118Clb=3.5m/s t=-39.6C 401.50MHz Type=RS41-SG meteocampoo.es - http://radiosondy.info
EA1JAY-16S49508052022-12-06 11:50:5843.4747-3.6887592468069Clb=3.0m/s t=-39.1C h=16.0% 401.500MHz Type=RS41-SG rdzTTGOsonde
EA1EF-14S49508052022-12-06 11:50:5743.4747-3.6890795468063Clb=3.8m/s t=-39.2C 401.50MHz Type=RS41-SG meteocampoo.es - http://radiosondy.info
EA1EF-14S49508052022-12-06 11:50:4743.4749-3.6916692508007Clb=3.6m/s t=-38.8C 401.50MHz Type=RS41-SG meteocampoo.es - http://radiosondy.info
EA1JAY-16S49508052022-12-06 11:50:2643.475-3.6953695507931Clb=3.0m/s t=-37.9C h=12.9% 401.500MHz Type=RS41-SG rdzTTGOsonde
EA1EF-14S49508052022-12-06 11:50:1443.475-3.6971691507893Clb=2.4m/s t=-37.6C 401.50MHz Type=RS41-SG meteocampoo.es - http://radiosondy.info
EA1JAY-16S49508052022-12-06 11:50:0143.4751-3.69991487857Clb=3.8m/s t=-37.3C h=13.8% 401.500MHz Type=RS41-SG rdzTTGOsonde
EA1EF-14S49508052022-12-06 11:50:0043.4751-3.7003796487830Clb=2.4m/s t=-37.0C 401.50MHz Type=RS41-SG meteocampoo.es - http://radiosondy.info
EA1JAY-16S49508052022-12-06 11:49:5743.4752-3.7026693487785Clb=3.5m/s t=-36.6C h=12.9% 401.500MHz Type=RS41-SG rdzTTGOsonde
EA1EF-14S49508052022-12-06 11:49:5243.4752-3.7055393447724Clb=3.4m/s t=-36.1C 401.50MHz Type=RS41-SG meteocampoo.es - http://radiosondy.info
EA1JAY-16S49508052022-12-06 11:49:5143.4752-3.7059892447714Clb=3.0m/s t=-36.0C h=8.0% 401.500MHz Type=RS41-SG rdzTTGOsonde
EA1EF-14S49508052022-12-06 11:49:4743.4753-3.7079991447670Clb=2.9m/s t=-35.7C 401.50MHz Type=RS41-SG meteocampoo.es - http://radiosondy.info
EA1JAY-16S49508052022-12-06 11:49:4443.4753-3.7092292467644Clb=4.0m/s t=-35.4C h=10.0% 401.500MHz Type=RS41-SG rdzTTGOsonde
EA1EF-14S49508052022-12-06 11:49:3943.4753-3.7104686437616Clb=2.6m/s t=-35.2C 401.50MHz Type=RS41-SG meteocampoo.es - http://radiosondy.info
EA1JAY-16S49508052022-12-06 11:49:2343.4752-3.712485437570Clb=4.1m/s t=-34.7C h=10.5% 401.500MHz Type=RS41-SG rdzTTGOsonde
EA1EF-14S49508052022-12-06 11:49:2143.4752-3.7128284417559Clb=4.7m/s t=-34.7C 401.50MHz Type=RS41-SG meteocampoo.es - http://radiosondy.info
EA1EF-14S49508052022-12-06 11:49:0143.475-3.7150587397493Clb=3.7m/s t=-34.1C 401.50MHz Type=RS41-SG meteocampoo.es - http://radiosondy.info
EA1JAY-16S49508052022-12-06 11:49:0043.475-3.7153196377486Clb=3.9m/s t=-33.9C h=9.9% 401.500MHz Type=RS41-SG rdzTTGOsonde
EA1EF-14S49508052022-12-06 11:48:5643.475-3.7171989377423Clb=5.1m/s t=-33.4C 401.50MHz Type=RS41-SG meteocampoo.es - http://radiosondy.info
EA1JAY-16S49508052022-12-06 11:48:5143.475-3.7179588377400Clb=3.9m/s t=-33.1C h=8.3% 401.500MHz Type=RS41-SG rdzTTGOsonde
EA1JAY-16S49508052022-12-06 11:48:5043.4749-3.7204491377328Clb=3.4m/s t=-32.4C h=11.0% 401.500MHz Type=RS41-SG rdzTTGOsonde
EA1EF-14S49508052022-12-06 11:48:4943.4749-3.7211787357307Clb=2.5m/s t=-32.3C 401.50MHz Type=RS41-SG meteocampoo.es - http://radiosondy.info
EA1JAY-16S49508052022-12-06 11:48:4843.4749-3.7229692337253Clb=3.1m/s t=-31.7C h=9.0% 401.500MHz Type=RS41-SG rdzTTGOsonde
EA1EF-14S49508052022-12-06 11:48:4743.4748-3.7247791317196Clb=4.2m/s t=-31.3C 401.50MHz Type=RS41-SG meteocampoo.es - http://radiosondy.info
EA1JAY-16S49508052022-12-06 11:48:4643.4748-3.7252389337181Clb=4.2m/s t=-31.1C h=8.7% 401.500MHz Type=RS41-SG rdzTTGOsonde
EA1JAY-16S49508052022-12-06 11:48:4443.4748-3.7275587317107Clb=3.4m/s t=-30.4C h=8.8% 401.500MHz Type=RS41-SG rdzTTGOsonde
EA1EF-14S49508052022-12-06 11:48:4343.4747-3.7295990317043Clb=3.1m/s t=-29.8C 401.50MHz Type=RS41-SG meteocampoo.es - http://radiosondy.info
EA1EF-14S49508052022-12-06 11:48:4243.4747-3.7312989316988Clb=2.4m/s t=-29.3C 401.50MHz Type=RS41-SG meteocampoo.es - http://radiosondy.info
EA1JAY-16S49508052022-12-06 11:48:4143.4746-3.7319288316969Clb=3.6m/s t=-29.0C h=7.4% 401.500MHz Type=RS41-SG rdzTTGOsonde
EA1JAY-16S49508052022-12-06 11:48:4043.4746-3.7340189306898Clb=3.4m/s t=-28.4C h=8.0% 401.500MHz Type=RS41-SG rdzTTGOsonde
EA1EF-14S49508052022-12-06 11:48:3943.4746-3.7348193286870Clb=3.2m/s t=-28.2C 401.50MHz Type=RS41-SG meteocampoo.es - http://radiosondy.info
EA1EF-14S49508052022-12-06 11:48:3743.4747-3.7376194286767Clb=2.9m/s t=-27.3C 401.50MHz Type=RS41-SG meteocampoo.es - http://radiosondy.info
EA1EF-14S49508052022-12-06 11:48:3643.4749-3.73914102286711Clb=2.9m/s t=-26.8C 401.50MHz Type=RS41-SG meteocampoo.es - http://radiosondy.info
EA1JAY-16S49508052022-12-06 11:48:3343.4751-3.74011109286676Clb=3.7m/s t=-26.3C h=4.8% 401.500MHz Type=RS41-SG rdzTTGOsonde
EA1EF-14S49508052022-12-06 11:48:3043.4752-3.74058111266658Clb=3.6m/s t=-26.3C 401.50MHz Type=RS41-SG meteocampoo.es - http://radiosondy.info
EA1JAY-16S49508052022-12-06 11:48:0243.4755-3.74205112316605Clb=3.7m/s t=-25.8C h=3.6% 401.500MHz Type=RS41-SG rdzTTGOsonde
EA1JAY-16S49508052022-12-06 11:47:1743.4761-3.74391117286533Clb=3.2m/s t=-25.1C h=3.5% 401.500MHz Type=RS41-SG rdzTTGOsonde
EA1JAY-16S49508052022-12-06 11:46:3643.4767-3.74561116286463Clb=3.5m/s t=-24.5C h=3.4% 401.500MHz Type=RS41-SG rdzTTGOsonde
EA1EF-14S49508052022-12-06 11:46:1243.4771-3.7467117246415Clb=3.8m/s t=-24.2C 401.50MHz Type=RS41-SG meteocampoo.es - http://radiosondy.info
EA1JAY-16S49508052022-12-06 11:45:5743.4772-3.74718112226391Clb=4.1m/s t=-24.1C h=3.5% 401.500MHz Type=RS41-SG rdzTTGOsonde
EA1EF-14S49508052022-12-06 11:45:4143.4774-3.7478111206359Clb=3.6m/s t=-23.9C 401.50MHz Type=RS41-SG meteocampoo.es - http://radiosondy.info
EA1JAY-16S49508052022-12-06 11:45:1743.4777-3.7486127246315Clb=5.0m/s t=-23.6C h=4.1% 401.500MHz Type=RS41-SG rdzTTGOsonde
EA1JAY-16S49508052022-12-06 11:44:3543.4785-3.75002133286243Clb=3.5m/s t=-23.1C h=4.6% 401.500MHz Type=RS41-SG rdzTTGOsonde
EA1JAY-16S49508052022-12-06 11:43:5043.4794-3.75137141206162Clb=3.8m/s t=-22.4C h=4.0% 401.500MHz Type=RS41-SG rdzTTGOsonde
EA1EF-14S49508052022-12-06 11:43:2243.4801-3.7522136206107Clb=3.1m/s t=-22.0C 401.50MHz Type=RS41-SG meteocampoo.es - http://radiosondy.info
EA1JAY-16S49508052022-12-06 11:43:0443.4804-3.75261134196080Clb=3.5m/s t=-21.7C h=3.5% 401.500MHz Type=RS41-SG rdzTTGOsonde
EA1EF-14S49508052022-12-06 11:42:4943.4807-3.75292146196057Clb=2.3m/s t=-21.6C 401.50MHz Type=RS41-SG meteocampoo.es - http://radiosondy.info
EA1JAY-16S49508052022-12-06 11:42:1943.4811-3.75351134176013Clb=4.0m/s t=-21.2C h=4.3% 401.500MHz Type=RS41-SG rdzTTGOsonde
EA1EF-14S49508052022-12-06 11:42:0643.4813-3.75381134155990Clb=3.7m/s t=-21.1C 401.50MHz Type=RS41-SG meteocampoo.es - http://radiosondy.info
EA1JAY-16S49508052022-12-06 11:41:3643.4817-3.75426153115938Clb=3.1m/s t=-20.9C h=7.0% 401.500MHz Type=RS41-SG rdzTTGOsonde
EA1EF-14S49508052022-12-06 11:41:0443.4822-3.75449153135882Clb=3.6m/s t=-20.5C Type=RS41 meteocampoo.es - http://radiosondy.info
EA1JAY-16S49508052022-12-06 11:40:5643.4823-3.75456163115868Clb=3.9m/s t=-20.3C h=6.9% 401.500MHz Type=RS41-SG rdzTTGOsonde
EA1EF-14S49508052022-12-06 11:40:3243.4827-3.75483151155824Clb=2.6m/s t=-20.1C Type=RS41 meteocampoo.es - http://radiosondy.info
EA1JAY-16S49508052022-12-06 11:40:2143.4829-3.75504150195800Clb=2.5m/s t=-19.8C h=5.6% 401.500MHz Type=RS41-SG rdzTTGOsonde
EA1JAY-16S49508052022-12-06 11:39:4743.4837-3.75566151155728Clb=2.6m/s t=-19.3C h=6.8% 401.500MHz Type=RS41-SG rdzTTGOsonde
EA1EF-14S49508052022-12-06 11:39:4343.4839-3.75578146195712Clb=3.1m/s t=-19.3C Type=RS41 meteocampoo.es - http://radiosondy.info
EA1JAY-16S49508052022-12-06 11:39:2843.4846-3.75621158195660Clb=2.9m/s t=-18.9C h=9.3% 401.500MHz Type=RS41-SG rdzTTGOsonde
EA1EF-14S49508052022-12-06 11:39:2543.4847-3.75632155205647Clb=2.4m/s Type=RS41 meteocampoo.es - http://radiosondy.info
EA1EF-14S49508052022-12-06 11:39:0843.4855-3.75668162225595Clb=3.3m/s Type=RS41 meteocampoo.es - http://radiosondy.info
EA1JAY-16S49508052022-12-06 11:39:0643.4855-3.7567164205591Clb=2.8m/s t=-18.3C h=8.0% 401.500MHz Type=RS41-SG rdzTTGOsonde
EA1JAY-16S49508052022-12-06 11:38:4443.4865-3.75728156225526Clb=3.7m/s t=-18.1C h=9.9% 401.500MHz Type=RS41-SG rdzTTGOsonde
EA1JAY-16S49508052022-12-06 11:38:2343.4876-3.75796150245457Clb=3.6m/s t=-17.7C h=13.9% 401.500MHz Type=RS41-SG rdzTTGOsonde
EA1EF-14S49508052022-12-06 11:38:1943.4879-3.7582151205439Clb=3.5m/s Type=RS41 meteocampoo.es - http://radiosondy.info
EA1JAY-16S49508052022-12-06 11:38:0243.4887-3.7588146205390Clb=3.7m/s t=-17.9C h=33.7% 401.500MHz Type=RS41-SG rdzTTGOsonde
EA1JAY-16S49508052022-12-06 11:37:4243.4895-3.75941148195329Clb=2.6m/s t=-17.3C h=37.4% 401.500MHz Type=RS41-SG rdzTTGOsonde
EA1JAY-16S49508052022-12-06 11:37:2543.4903-3.75984157195261Clb=3.0m/s t=-16.6C h=35.4% 401.500MHz Type=RS41-SG rdzTTGOsonde
EA1JAY-16S49508052022-12-06 11:37:0143.4911-3.76032157175193Clb=3.2m/s t=-16.0C h=37.9% 401.500MHz Type=RS41-SG rdzTTGOsonde
EA1JAY-16S49508052022-12-06 11:36:4243.4918-3.76071157135122Clb=3.6m/s t=-15.4C h=42.3% 401.500MHz Type=RS41-SG rdzTTGOsonde
EA1EF-14S49508052022-12-06 11:36:2943.4923-3.76115142115057Clb=2.9m/s Type=RS41 meteocampoo.es - http://radiosondy.info
EA1EF-14S49508052022-12-06 11:36:2843.4927-3.76166134114991Clb=3.9m/s Type=RS41 meteocampoo.es - http://radiosondy.info
EA1JAY-16S49508052022-12-06 11:36:2743.4928-3.76173137134985Clb=3.6m/s t=-14.1C h=40.1% 401.500MHz Type=RS41-SG rdzTTGOsonde
EA1JAY-16S49508052022-12-06 11:36:2643.4932-3.7623125114917Clb=3.5m/s t=-13.5C h=40.2% 401.500MHz Type=RS41-SG rdzTTGOsonde
EA1JAY-16S49508052022-12-06 11:36:2543.4935-3.76283135114849Clb=2.8m/s t=-12.9C h=39.3% 401.500MHz Type=RS41-SG rdzTTGOsonde
EA1JAY-16S49508052022-12-06 11:36:2343.4938-3.76338123114779Clb=3.6m/s t=-12.8C h=54.1% 401.500MHz Type=RS41-SG rdzTTGOsonde
EA1JAY-16S49508052022-12-06 11:36:1943.4939-3.763827674713Clb=2.8m/s t=-12.3C h=57.7% 401.500MHz Type=RS41-SG rdzTTGOsonde
EA1JAY-16S49508052022-12-06 11:36:0843.4939-3.7644574114645Clb=3.1m/s t=-12.0C h=60.4% 401.500MHz Type=RS41-SG rdzTTGOsonde
EA1JAY-16S49508052022-12-06 11:35:3343.4938-3.765078674574Clb=3.0m/s t=-11.6C h=63.6% 401.500MHz Type=RS41-SG rdzTTGOsonde
EA1JAY-16S49508052022-12-06 11:34:5743.4936-3.7657457134502Clb=3.7m/s t=-11.0C h=61.9% 401.500MHz Type=RS41-SG rdzTTGOsonde
EA1JAY-16S49508052022-12-06 11:34:1943.4935-3.766581134432Clb=3.7m/s t=-10.5C h=58.9% 401.500MHz Type=RS41-SG rdzTTGOsonde
EA1JAY-16S49508052022-12-06 11:33:3943.4933-3.767299394360Clb=3.0m/s t=-9.9C h=65.1% 401.500MHz Type=RS41-SG rdzTTGOsonde
EA1JAY-16S49508052022-12-06 11:33:0443.4933-3.767867964287Clb=4.3m/s t=-9.5C h=68.3% 401.500MHz Type=RS41-SG rdzTTGOsonde
EA1JAY-16S49508052022-12-06 11:32:2443.4933-3.768224964218Clb=3.2m/s t=-9.1C h=70.7% 401.500MHz Type=RS41-SG rdzTTGOsonde
EA1JAY-16S49508052022-12-06 11:31:5343.4931-3.7684735144148Clb=3.5m/s t=-8.5C h=68.0% 401.500MHz Type=RS41-SG rdzTTGOsonde
EA1JAY-16S49508052022-12-06 11:31:3343.4928-3.768554064078Clb=3.2m/s t=-8.0C h=69.4% 401.500MHz Type=RS41-SG rdzTTGOsonde
EA1JAY-16S49508052022-12-06 11:31:1443.4925-3.76863644008Clb=3.6m/s t=-7.6C h=69.0% 401.500MHz Type=RS41-SG rdzTTGOsonde
EA1JAY-16S49508052022-12-06 11:31:1343.4923-3.768955273937Clb=3.5m/s t=-7.2C h=70.8% 401.500MHz Type=RS41-SG rdzTTGOsonde
EA1JAY-16S49508052022-12-06 11:31:1143.492-3.769315093869Clb=3.5m/s t=-6.8C h=70.3% 401.500MHz Type=RS41-SG rdzTTGOsonde
EA1JAY-16S49508052022-12-06 11:31:1043.4916-3.7698226113801Clb=2.8m/s t=-6.2C h=69.8% 401.500MHz Type=RS41-SG rdzTTGOsonde
EA1JAY-16S49508052022-12-06 11:30:5743.4912-3.770284173735Clb=3.4m/s t=-5.9C h=72.7% 401.500MHz Type=RS41-SG rdzTTGOsonde
EA1JAY-16S49508052022-12-06 11:30:2343.4909-3.7707552113665Clb=3.5m/s t=-5.6C h=72.7% 401.500MHz Type=RS41-SG rdzTTGOsonde
EA1JAY-16S49508052022-12-06 11:29:5043.4906-3.771054963598Clb=3.5m/s t=-5.4C h=75.0% 401.500MHz Type=RS41-SG rdzTTGOsonde
EA1JAY-16S49508052022-12-06 11:29:1943.4905-3.771249243532Clb=3.7m/s t=-5.0C h=77.3% 401.500MHz Type=RS41-SG rdzTTGOsonde
EA1JAY-16S49508052022-12-06 11:28:4143.4904-3.7714411543453Clb=5.2m/s t=-4.4C h=72.1% 401.500MHz Type=RS41-SG rdzTTGOsonde
EA1JAY-16S49508052022-12-06 11:27:4343.4906-3.7718514163287Clb=4.6m/s t=-3.8C h=79.1% 401.500MHz Type=RS41-SG rdzTTGOsonde
EA1JAY-16S49508052022-12-06 11:27:2443.4906-3.772187163205Clb=4.5m/s t=-3.1C h=79.4% 401.500MHz Type=RS41-SG rdzTTGOsonde
EA1JAY-16S49508052022-12-06 11:26:5243.4905-3.7729169113102Clb=3.2m/s t=-2.7C h=80.6% 401.500MHz Type=RS41-SG rdzTTGOsonde
EA1JAY-16S49508052022-12-06 11:26:3043.4903-3.773397573026Clb=3.9m/s t=-2.5C h=82.1% 401.500MHz Type=RS41-SG rdzTTGOsonde
EA1JAY-16S49508052022-12-06 11:26:1943.4902-3.773643442948Clb=3.4m/s t=-2.9C h=92.7% 401.500MHz Type=RS41-SG rdzTTGOsonde
EA1JAY-16S49508052022-12-06 11:26:1843.4902-3.7735825242873Clb=3.3m/s t=-2.5C h=92.1% 401.500MHz Type=RS41-SG rdzTTGOsonde
EA1JAY-16S49508052022-12-06 11:26:0743.4903-3.7735415742802Clb=3.5m/s t=-2.1C h=91.4% 401.500MHz Type=RS41-SG rdzTTGOsonde
EA1JAY-16S49508052022-12-06 11:25:3743.4907-3.7737116062734Clb=3.9m/s t=-1.7C h=90.1% 401.500MHz Type=RS41-SG rdzTTGOsonde
EA1JAY-16S49508052022-12-06 11:25:0343.4908-3.7738316272665Clb=3.7m/s t=-1.2C h=90.3% 401.500MHz Type=RS41-SG rdzTTGOsonde
EA1JAY-16S49508052022-12-06 11:24:3243.4911-3.7739916672592Clb=3.8m/s t=-0.6C h=90.4% 401.500MHz Type=RS41-SG rdzTTGOsonde
EA1JAY-16S49508052022-12-06 11:24:0243.4915-3.7739919292520Clb=4.5m/s t=-0.2C h=84.9% 401.500MHz Type=RS41-SG rdzTTGOsonde
EA1JAY-16S49508052022-12-06 11:23:4043.4919-3.7739319142446Clb=4.0m/s t=0.2C h=82.7% 401.500MHz Type=RS41-SG rdzTTGOsonde
EA1JAY-16S49508052022-12-06 11:23:2043.4921-3.7739814942373Clb=4.2m/s t=0.2C h=89.0% 401.500MHz Type=RS41-SG rdzTTGOsonde
EA1JAY-16S49508052022-12-06 11:22:5943.4923-3.7743989132303Clb=4.3m/s t=0.4C h=91.0% 401.500MHz Type=RS41-SG rdzTTGOsonde
EA1JAY-16S49508052022-12-06 11:22:3943.4921-3.7751879132227Clb=3.9m/s t=0.6C h=92.3% 401.500MHz Type=RS41-SG rdzTTGOsonde
EA1JAY-16S49508052022-12-06 11:22:1943.4919-3.7762378172150Clb=3.8m/s t=1.2C h=89.7% 401.500MHz Type=RS41-SG rdzTTGOsonde
EA1JAY-16S49508052022-12-06 11:21:5843.4916-3.7773473152081Clb=4.3m/s t=1.7C h=86.1% 401.500MHz Type=RS41-SG rdzTTGOsonde
EA1JAY-16S49508052022-12-06 11:21:5143.4914-3.7783565172009Clb=3.8m/s t=2.3C h=84.1% 401.500MHz Type=RS41-SG rdzTTGOsonde
EA1JAY-16S49508052022-12-06 11:21:4243.4909-3.7793574151917Clb=4.5m/s t=2.7C h=82.5% 401.500MHz Type=RS41-SG rdzTTGOsonde
EA1JAY-16S49508052022-12-06 11:21:1243.4907-3.78067102171818Clb=4.2m/s t=3.3C h=86.1% 401.500MHz Type=RS41-SG rdzTTGOsonde
EA1JAY-16S49508052022-12-06 11:20:4643.4907-3.78204102191728Clb=2.6m/s 401.500MHz Type=RS41-SG rdzTTGOsonde
EA1JAY-16S49508052022-12-06 11:20:1943.4909-3.7834487201647Clb=5.6m/s 401.500MHz Type=RS41 rdzTTGOsonde
EA1JAY-16S49508052022-12-06 11:19:5443.491-3.78474111171558Clb=4.7m/s 401.500MHz Type=RS41 rdzTTGOsonde